Home > Products > Valid Products > TAF

000
FTUS41 KOKX 040531
TAFISP
TAF
KISP 040531Z 0406/0506 14004KT P6SM FEW060 BKN200
     FM041000 12005KT P6SM SCT060 OVC100
     FM041500 07007KT P6SM SCT035 OVC060
      TEMPO 0417/0419 5SM -RA BKN035
     FM041900 02011KT P6SM SCT035 OVC060
      TEMPO 0419/0421 5SM -RA BKN035
     FM050100 01005KT P6SM BKN060=



000
FTUS41 KOKX 040531
TAFBDR
TAF
KBDR 040531Z 0406/0506 14004KT P6SM FEW060 BKN200
     FM041000 12005KT P6SM SCT060 OVC100
     FM041500 07007KT P6SM SCT035 OVC060
      TEMPO 0417/0419 5SM -RA BKN035
     FM041900 03010KT P6SM SCT035 OVC060
      TEMPO 0419/0421 5SM -RA BKN035
     FM050100 02005KT P6SM BKN060=



000
FTUS41 KOKX 040531
TAFTEB
TAF
KTEB 040531Z 0406/0506 14004KT P6SM SCT060 BKN150
     FM040900 VRB03KT P6SM SCT060 OVC100
     FM041300 07006KT P6SM SCT035 OVC060
      TEMPO 0414/0417 5SM -RA BKN035
     FM041700 02008KT P6SM SCT035 BKN060
      TEMPO 0417/0419 5SM -RA BKN035
     FM042300 VRB03KT P6SM BKN060
     FM050500 VRB03KT P6SM SCT060=



000
FTUS41 KOKX 040531
TAFSWF
TAF
KSWF 040531Z 0406/0512 VRB03KT P6SM SCT060 BKN100
     FM041200 VRB04KT P6SM SCT035 OVC060
      TEMPO 0412/0416 5SM -RA BKN035
     FM041600 07006KT P6SM SCT035 OVC060
      TEMPO 0416/0418 5SM -RA BKN035
     FM042300 VRB03KT P6SM BKN060
     FM050500 VRB02KT P6SM SCT060
      AMD NOT SKED=



000
FTUS41 KOKX 040531
TAFJFK
TAF
KJFK 040531Z 0406/0512 14006KT P6SM FEW060 BKN150
     FM040900 12006KT P6SM SCT060 OVC100
     FM041400 07008KT P6SM SCT035 OVC060
      TEMPO 0415/0418 5SM -RA BKN035
     FM041800 02010KT P6SM SCT035 OVC060
      TEMPO 0418/0420 5SM -RA BKN035
     FM050000 36005KT P6SM BKN060
     FM050600 30005KT P6SM SCT060=



000
FTUS41 KOKX 040531
TAFEWR
TAF
KEWR 040531Z 0406/0512 14005KT P6SM SCT060 BKN150
     FM040900 10005KT P6SM SCT060 OVC100
     FM041300 07007KT P6SM SCT035 OVC060
      TEMPO 0414/0417 5SM -RA BKN035
     FM041700 02010KT P6SM SCT035 OVC060
      TEMPO 0417/0419 5SM -RA BKN035
     FM042300 01004KT P6SM BKN060
     FM050500 VRB04KT P6SM SCT060=



000
FTUS41 KOKX 040531
TAFGON
TAF
KGON 040531Z 0406/0506 VRB03KT P6SM FEW060 BKN200
     FM041200 12005KT P6SM FEW060 OVC100
     FM041800 10007KT P6SM SCT035 OVC060
      TEMPO 0419/0421 5SM -RA BKN035
     FM042100 04007KT P6SM SCT035 OVC060
      TEMPO 0421/0423 5SM -RA BKN035
     FM050300 VRB03KT P6SM BKN060=



000
FTUS41 KOKX 040531
TAFLGA
TAF
KLGA 040531Z 0406/0506 15006KT P6SM FEW060 BKN150
     FM040900 12005KT P6SM SCT060 OVC100
     FM041400 06008KT P6SM SCT035 OVC060
      TEMPO 0415/0418 5SM -RA BKN035
     FM041800 03011KT P6SM SCT035 OVC060
      TEMPO 0418/0420 5SM -RA BKN035
     FM050000 02006KT P6SM BKN060=



000
FTUS41 KOKX 040230 AAA
TAFLGA
TAF AMD
KLGA 040230Z 0402/0424 17006KT P6SM BKN200
     FM040900 08005KT P6SM OVC100
     FM041400 06012KT P6SM SCT035 OVC060 PROB30 0414/0420 5SM -RA
      BKN035
     FM042000 04007KT P6SM BKN060=



000
FTUS41 KOKX 040230 AAA
TAFGON
TAF AMD
KGON 040230Z 0402/0424 VRB03KT P6SM BKN200
     FM040900 VRB02KT P6SM OVC150
     FM041500 10008KT P6SM FEW060 OVC100
     FM041800 05008KT P6SM SCT050 OVC070 PROB30 0418/0423 6SM -RA
      BKN050=



000
FTUS41 KOKX 040230 AAA
TAFJFK
TAF AMD
KJFK 040230Z 0402/0506 14006KT P6SM BKN200
     FM040900 10007KT P6SM OVC100
     FM041400 04011KT P6SM SCT035 OVC060 PROB30 0414/0420 5SM -RA
      BKN035
     FM042000 VRB05KT P6SM BKN060
     FM050000 VRB05KT P6SM SKC=



000
FTUS41 KOKX 040230 AAA
TAFTEB
TAF AMD
KTEB 040230Z 0402/0424 VRB03KT P6SM FEW070 BKN200
     FM040900 VRB02KT P6SM OVC120
     FM041300 06008KT P6SM SCT050 OVC080 PROB30 0413/0418 6SM -RA
      BKN050
     FM041800 03007KT P6SM BKN120=



000
FTUS41 KOKX 040230 AAA
TAFEWR
TAF AMD
KEWR 040230Z 0402/0506 18005KT P6SM FEW060 BKN200
     FM040900 07005KT P6SM OVC100
     FM041300 04009KT P6SM SCT035 OVC080 PROB30 0413/0419 5SM -RA
      BKN035
     FM041900 02006KT P6SM BKN100
     FM050000 VRB03KT P6SM SKC=



000
FTUS41 KOKX 040230 AAA
TAFISP
TAF AMD
KISP 040230Z 0402/0424 16005KT P6SM BKN200
     FM040400 VRB02KT P6SM BKN200
     FM040900 10006KT P6SM OVC120
     FM041500 05009KT P6SM SCT040 OVC060 PROB30 0415/0421 5SM -RA
      BKN040
     FM042100 03009KT P6SM BKN080=



000
FTUS41 KOKX 040230 AAA
TAFBDR
TAF AMD
KBDR 040230Z 0402/0424 16005KT P6SM BKN200
     FM040600 VRB02KT P6SM BKN200
     FM040900 08006KT P6SM OVC120
     FM041500 05011KT P6SM SCT050 OVC080 PROB30 0415/0421 5SM -RA
      BKN050
     FM042100 04010KT P6SM BKN080=



000
FTUS41 KOKX 032320
TAFSWF
TAF
KSWF 032320Z 0400/0506 VRB03KT P6SM SCT120 BKN200
     FM040800 VRB02KT P6SM OVC100
     FM041300 VRB04KT P6SM SCT040 OVC060 PROB30 0413/0418 6SM -RA
      BKN040
     FM041800 04006KT P6SM BKN120
     FM050000 VRB03KT P6SM SKC
      AMD NOT SKED=



000
FTUS41 KOKX 032320
TAFTEB
TAF
KTEB 032320Z 0400/0424 22006KT P6SM SCT070 BKN200
     FM040100 VRB02KT P6SM FEW070 BKN200
     FM040800 VRB02KT P6SM OVC120
     FM041300 06008KT P6SM SCT050 OVC080 PROB30 0413/0418 6SM -RA
      BKN050
     FM041800 03007KT P6SM BKN120=



000
FTUS41 KOKX 032320
TAFGON
TAF
KGON 032320Z 0400/0424 VRB03KT P6SM BKN200
     FM040900 VRB02KT P6SM OVC150
     FM041500 10008KT P6SM FEW060 OVC100
     FM041800 05008KT P6SM SCT050 OVC070 PROB30 0418/0423 6SM -RA
      BKN050=



000
FTUS41 KOKX 032320
TAFEWR
TAF
KEWR 032320Z 0400/0506 18005KT P6SM FEW060 BKN200
     FM040800 07005KT P6SM OVC100
     FM041300 04009KT P6SM SCT035 OVC080 PROB30 0413/0419 5SM -RA
      BKN035
     FM041900 02006KT P6SM BKN100
     FM050000 VRB03KT P6SM SKC=



000
FTUS41 KOKX 032320
TAFJFK
TAF
KJFK 032320Z 0400/0506 19007KT P6SM FEW060 BKN200
     FM040800 10007KT P6SM OVC100
     FM041400 04011KT P6SM SCT035 OVC060 PROB30 0414/0420 5SM -RA
      BKN035
     FM042000 VRB05KT P6SM BKN060
     FM050000 VRB05KT P6SM SKC=



000
FTUS41 KOKX 032320
TAFISP
TAF
KISP 032320Z 0400/0424 16005KT P6SM BKN200
     FM040400 VRB02KT P6SM BKN200
     FM040800 10006KT P6SM OVC120
     FM041500 05009KT P6SM SCT040 OVC060 PROB30 0415/0421 5SM -RA
      BKN040
     FM042100 03009KT P6SM BKN080=



000
FTUS41 KOKX 032320
TAFLGA
TAF
KLGA 032320Z 0400/0424 17006KT P6SM FEW070 BKN200
     FM040800 08005KT P6SM OVC100
     FM041400 06012KT P6SM SCT035 OVC060 PROB30 0414/0420 5SM -RA
      BKN035
     FM042000 04007KT P6SM BKN060=



000
FTUS41 KOKX 032320
TAFBDR
TAF
KBDR 032320Z 0400/0424 16005KT P6SM BKN200
     FM040400 VRB02KT P6SM BKN200
     FM040800 08006KT P6SM OVC120
     FM041500 05011KT P6SM SCT050 OVC080 PROB30 0415/0421 5SM -RA
      BKN050
     FM042100 04010KT P6SM BKN080=



000
FTUS41 KOKX 032102 AAB
TAFTEB
TAF AMD
KTEB 032102Z 0321/0418 VRB05KT P6SM FEW060 BKN250
     FM032230 18006KT P6SM BKN250
     FM040200 15005KT P6SM BKN200
     FM040800 09005KT P6SM OVC100
     FM041300 06010G16KT P6SM SCT035 OVC060 PROB30 0413/0418 5SM -RA
      BKN035=



000
FTUS41 KOKX 031930 AAA
TAFLGA
TAF AMD
KLGA 031930Z 0320/0418 VRB06KT P6SM BKN250
     FM032100 18010KT P6SM SCT250
     FM040200 15005KT P6SM BKN200
     FM040800 08007KT P6SM OVC100
     FM041400 06010G14KT P6SM SCT035 OVC060 PROB30 0414/0418 5SM -RA
      BKN035=



000
FTUS41 KOKX 031930 AAA
TAFTEB
TAF AMD
KTEB 031930Z 0320/0418 VRB05KT P6SM BKN250
     FM032100 18008KT P6SM BKN250
     FM040200 15005KT P6SM BKN200
     FM040800 09005KT P6SM OVC100
     FM041300 06010G16KT P6SM SCT035 OVC060 PROB30 0413/0418 5SM -RA
      BKN035=



000
FTUS41 KOKX 031930 AAA
TAFGON
TAF AMD
KGON 031930Z 0320/0418 20009KT P6SM SCT250
     FM040000 VRB03KT P6SM BKN200
     FM040800 06005KT P6SM OVC100
     FM041500 06010KT P6SM SCT040 OVC080=



000
FTUS41 KOKX 031930 AAA
TAFJFK
TAF AMD
KJFK 031930Z 0320/0424 20012KT P6SM BKN250
     FM040200 14005KT P6SM BKN200
     FM040800 08007KT P6SM OVC100
     FM041400 06010G16KT P6SM SCT035 OVC060 PROB30 0414/0420 5SM -RA
      BKN035=



000
FTUS41 KOKX 031930 AAA
TAFEWR
TAF AMD
KEWR 031930Z 0320/0424 18006KT P6SM BKN250
     FM032100 16008KT P6SM BKN250
     FM040800 08005KT P6SM OVC100
     FM041300 04010G16KT P6SM SCT035 OVC060 PROB30 0413/0419 5SM -RA
      BKN035=



000
FTUS41 KOKX 031930 AAA
TAFISP
TAF AMD
KISP 031930Z 0320/0418 VRB06KT P6SM BKN250
     FM032100 19009KT P6SM SCT250
     FM040200 VRB03KT P6SM BKN200
     FM040900 09006KT P6SM OVC100
     FM041500 06010G16KT P6SM SCT035 OVC060 PROB30 0415/0418 5SM -RA
      BKN035=



000
FTUS41 KOKX 031930 AAA
TAFGON
TAF AMD
KGON 031930Z 0320/0418 20009KT P6SM SCT250
     FM040000 VRB03KT P6SM BKN200
     FM040800 06005KT P6SM OVC100
     FM041500 06010KT P6SM SCT040 OVC080=



000
FTUS41 KOKX 031930 AAA
TAFJFK
TAF AMD
KJFK 031930Z 0320/0424 20012KT P6SM BKN250
     FM040200 14005KT P6SM BKN200
     FM040800 08007KT P6SM OVC100
     FM041400 06010G16KT P6SM SCT035 OVC060 PROB30 0414/0420 5SM -RA
      BKN035=



000
FTUS41 KOKX 031930 AAA
TAFEWR
TAF AMD
KEWR 031930Z 0320/0424 18006KT P6SM BKN250
     FM032100 16008KT P6SM BKN250
     FM040800 08005KT P6SM OVC100
     FM041300 04010G16KT P6SM SCT035 OVC060 PROB30 0413/0419 5SM -RA
      BKN035=



000
FTUS41 KOKX 031930 AAA
TAFSWF
TAF AMD
KSWF 031930Z 0320/0424 25005KT P6SM SCT250
     FM040000 15004KT P6SM BKN250
     FM040300 VRB02KT P6SM OVC130
     FM041400 04007KT P6SM SCT040 OVC080
      AMD NOT SKED=



000
FTUS41 KOKX 031930 AAA
TAFBDR
TAF AMD
KBDR 031930Z 0320/0418 21008KT P6SM SKC
     FM040200 VRB03KT P6SM BKN200
     FM040900 07005KT P6SM OVC100
     FM041400 06010KT P6SM SCT040 OVC080=



000
FTUS41 KOKX 031930 AAA
TAFBDR
TAF AMD
KBDR 031930Z 0320/0418 21008KT P6SM SKC
     FM040200 VRB03KT P6SM BKN200
     FM040900 07005KT P6SM OVC100
     FM041400 06010KT P6SM SCT040 OVC080=



000
FTUS41 KOKX 031930 AAA
TAFISP
TAF AMD
KISP 031930Z 0320/0418 VRB06KT P6SM BKN250
     FM032100 19009KT P6SM SCT250
     FM040200 VRB03KT P6SM BKN200
     FM040900 09006KT P6SM OVC100
     FM041500 06010G16KT P6SM SCT035 OVC060 PROB30 0415/0418 5SM -RA
      BKN035=



000
FTUS41 KOKX 031930 AAA
TAFSWF
TAF AMD
KSWF 031930Z 0320/0424 25005KT P6SM SCT250
     FM040000 15004KT P6SM BKN250
     FM040300 VRB02KT P6SM OVC130
     FM041400 04007KT P6SM SCT040 OVC080
      AMD NOT SKED=



000
FTUS41 KOKX 031930 AAA
TAFLGA
TAF AMD
KLGA 031930Z 0320/0418 VRB06KT P6SM BKN250
     FM032100 18010KT P6SM SCT250
     FM040200 15005KT P6SM BKN200
     FM040800 08007KT P6SM OVC100
     FM041400 06010G14KT P6SM SCT035 OVC060 PROB30 0414/0418 5SM -RA
      BKN035=



000
FTUS41 KOKX 031733
TAFEWR
TAF
KEWR 031733Z 0318/0424 VRB05KT P6SM SKC
     FM031900 18006KT P6SM SCT250
     FM032100 16008KT P6SM BKN250
     FM040800 08005KT P6SM OVC100
     FM041300 04010G16KT P6SM SCT035 OVC060 PROB30 0413/0419 5SM -RA
      BKN035=



000
FTUS41 KOKX 031733
TAFTEB
TAF
KTEB 031733Z 0318/0418 VRB05KT P6SM SCT250
     FM032100 18008KT P6SM BKN250
     FM040200 15005KT P6SM BKN200
     FM040800 09005KT P6SM OVC100
     FM041300 06010G16KT P6SM SCT035 OVC060 PROB30 0413/0418 5SM -RA
      BKN035=



000
FTUS41 KOKX 031733
TAFSWF
TAF
KSWF 031733Z 0318/0424 24005KT P6SM SCT250
     FM040000 15004KT P6SM BKN250
     FM040300 VRB02KT P6SM OVC130
     FM041400 04007KT P6SM SCT040 OVC080
      AMD NOT SKED=



000
FTUS41 KOKX 031733
TAFLGA
TAF
KLGA 031733Z 0318/0418 03008KT P6SM FEW050
     FM031900 18010KT P6SM SCT250
     FM040200 15005KT P6SM BKN200
     FM040800 08007KT P6SM OVC100
     FM041400 06010G14KT P6SM SCT035 OVC060 PROB30 0414/0418 5SM -RA
      BKN035=



000
FTUS41 KOKX 031733
TAFBDR
TAF
KBDR 031733Z 0318/0418 18008KT P6SM SKC
     FM040200 VRB03KT P6SM BKN200
     FM040900 07005KT P6SM OVC100
     FM041400 06010KT P6SM SCT040 OVC080=



000
FTUS41 KOKX 031733
TAFISP
TAF
KISP 031733Z 0318/0418 19009KT P6SM SCT250
     FM040200 VRB03KT P6SM BKN200
     FM040900 09006KT P6SM OVC100
     FM041500 06010G16KT P6SM SCT035 OVC060 PROB30 0415/0418 5SM -RA
      BKN035=



000
FTUS41 KOKX 031733
TAFGON
TAF
KGON 031733Z 0318/0418 20009KT P6SM SCT250
     FM040000 VRB03KT P6SM BKN200
     FM040800 06005KT P6SM OVC100
     FM041500 06010KT P6SM SCT040 OVC080=



000
FTUS41 KOKX 031733
TAFJFK
TAF
KJFK 031733Z 0318/0424 18012KT P6SM SCT250
     FM040200 14005KT P6SM BKN200
     FM040800 08007KT P6SM OVC100
     FM041400 06010G16KT P6SM SCT035 OVC060 PROB30 0414/0420 5SM -RA
      BKN035=



000
FTUS41 KOKX 031431 AAB
TAFGON
TAF AMD
KGON 031431Z 0315/0412 36007KT P6SM FEW060
     FM031600 20009KT P6SM SCT250
     FM040000 VRB03KT P6SM BKN200
     FM040800 06005KT P6SM OVC100=



000
FTUS41 KOKX 031431 AAB
TAFBDR
TAF AMD
KBDR 031431Z 0315/0412 02006KT P6SM SKC
     FM031800 18008KT P6SM SKC
     FM040200 VRB03KT P6SM BKN200
     FM040900 07005KT P6SM OVC100=



000
FTUS41 KOKX 031431 AAB
TAFTEB
TAF AMD
KTEB 031431Z 0315/0412 01007KT P6SM FEW050
     FM031700 VRB05KT P6SM SCT250
     FM032100 18008KT P6SM BKN250
     FM040200 15005KT P6SM BKN200
     FM040800 09005KT P6SM OVC100=



000
FTUS41 KOKX 031431 AAB
TAFEWR
TAF AMD
KEWR 031431Z 0315/0418 01006KT P6SM FEW050
     FM031700 18006KT P6SM SCT250
     FM032100 15008KT P6SM BKN250
     FM040800 08005KT P6SM OVC100
     FM041400 05011G18KT 5SM -RA SCT025 OVC060=



000
FTUS41 KOKX 031431 AAC
TAFISP
TAF AMD
KISP 031431Z 0315/0412 36007KT P6SM FEW070
     FM031800 19009KT P6SM SCT250
     FM040200 VRB03KT P6SM BKN200
     FM040900 09006KT P6SM OVC100=



000
FTUS41 KOKX 031431 AAA
TAFSWF
TAF AMD
KSWF 031431Z 0315/0418 02004KT P6SM SKC
     FM031800 24005KT P6SM SCT250
     FM040000 15004KT P6SM BKN250
     FM040300 VRB02KT P6SM OVC130
     FM041400 04007KT 5SM -RA SCT025 OVC050
      AMD NOT SKED=



000
FTUS41 KOKX 031431 AAB
TAFBDR
TAF AMD
KBDR 031431Z 0315/0412 02006KT P6SM SKC
     FM031800 18008KT P6SM SKC
     FM040200 VRB03KT P6SM BKN200
     FM040900 07005KT P6SM OVC100=



000
FTUS41 KOKX 031431 AAB
TAFLGA
TAF AMD
KLGA 031431Z 0315/0412 03008KT P6SM FEW050
     FM031900 18010KT P6SM SCT250
     FM040200 15005KT P6SM BKN200
     FM040800 08007KT P6SM OVC100=



000
FTUS41 KOKX 031431 AAB
TAFJFK
TAF AMD
KJFK 031431Z 0315/0418 03010KT P6SM SKC
     FM031700 18012KT P6SM SCT250
     FM040200 14005KT P6SM BKN200
     FM040800 08007KT P6SM OVC100
     FM041400 06012G18KT 5SM -RA SCT025 OVC060=



000
FTUS41 KOKX 031431 AAB
TAFGON
TAF AMD
KGON 031431Z 0315/0412 36007KT P6SM FEW060
     FM031600 20009KT P6SM SCT250
     FM040000 VRB03KT P6SM BKN200
     FM040800 06005KT P6SM OVC100=



000
FTUS41 KOKX 031431 AAC
TAFISP
TAF AMD
KISP 031431Z 0315/0412 36007KT P6SM FEW070
     FM031800 19009KT P6SM SCT250
     FM040200 VRB03KT P6SM BKN200
     FM040900 09006KT P6SM OVC100=



000
FTUS41 KOKX 031431 AAB
TAFTEB
TAF AMD
KTEB 031431Z 0315/0412 01007KT P6SM FEW050
     FM031700 VRB05KT P6SM SCT250
     FM032100 18008KT P6SM BKN250
     FM040200 15005KT P6SM BKN200
     FM040800 09005KT P6SM OVC100=



000
FTUS41 KOKX 031431 AAA
TAFSWF
TAF AMD
KSWF 031431Z 0315/0418 02004KT P6SM SKC
     FM031800 24005KT P6SM SCT250
     FM040000 15004KT P6SM BKN250
     FM040300 VRB02KT P6SM OVC130
     FM041400 04007KT 5SM -RA SCT025 OVC050
      AMD NOT SKED=



000
FTUS41 KOKX 031431 AAB
TAFLGA
TAF AMD
KLGA 031431Z 0315/0412 03008KT P6SM FEW050
     FM031900 18010KT P6SM SCT250
     FM040200 15005KT P6SM BKN200
     FM040800 08007KT P6SM OVC100=



000
FTUS41 KOKX 031431 AAB
TAFJFK
TAF AMD
KJFK 031431Z 0315/0418 03010KT P6SM SKC
     FM031700 18012KT P6SM SCT250
     FM040200 14005KT P6SM BKN200
     FM040800 08007KT P6SM OVC100
     FM041400 06012G18KT 5SM -RA SCT025 OVC060=



000
FTUS41 KOKX 031431 AAB
TAFEWR
TAF AMD
KEWR 031431Z 0315/0418 01006KT P6SM FEW050
     FM031700 18006KT P6SM SCT250
     FM032100 15008KT P6SM BKN250
     FM040800 08005KT P6SM OVC100
     FM041400 05011G18KT 5SM -RA SCT025 OVC060=



000
FTUS41 KOKX 031242 RRA
TAFEWR
TAF
KEWR 031242Z 0313/0418 01006KT P6SM FEW050
     FM031700 18006KT P6SM SCT250
     FM032100 15008KT P6SM BKN250
     FM040800 08005KT P6SM OVC100
     FM041400 05011G18KT 5SM -RA SCT025 OVC060=



000
FTUS41 KOKX 031242 RRA
TAFLGA
TAF
KLGA 031242Z 0313/0412 05008KT P6SM FEW050
     FM031900 18010KT P6SM SCT250
     FM040200 15005KT P6SM BKN200
     FM040800 08007KT P6SM OVC100=



000
FTUS41 KOKX 031242 RRA
TAFJFK
TAF
KJFK 031242Z 0313/0418 36006KT P6SM FEW050
     FM031400 03008KT P6SM SKC
     FM031700 18010KT P6SM SCT250
     FM040200 14005KT P6SM BKN200
     FM040800 08007KT P6SM OVC100
     FM041400 06012G18KT 5SM -RA SCT025 OVC060=



000
FTUS41 KOKX 031242 RRA
TAFTEB
TAF
KTEB 031242Z 0313/0412 01007KT P6SM FEW050
     FM031700 VRB05KT P6SM SCT250
     FM032100 18008KT P6SM BKN250
     FM040200 15005KT P6SM BKN200
     FM040800 09005KT P6SM OVC100=



000
FTUS41 KOKX 031242 RRA
TAFGON
TAF
KGON 031242Z 0313/0412 36007KT P6SM FEW060
     FM031600 20009KT P6SM SCT250
     FM040000 VRB03KT P6SM BKN200
     FM040800 06005KT P6SM OVC100=



000
FTUS41 KOKX 031242 RRA
TAFJFK
TAF
KJFK 031242Z 0313/0418 36006KT P6SM FEW050
     FM031400 03008KT P6SM SKC
     FM031700 18010KT P6SM SCT250
     FM040200 14005KT P6SM BKN200
     FM040800 08007KT P6SM OVC100
     FM041400 06012G18KT 5SM -RA SCT025 OVC060=



000
FTUS41 KOKX 031242 RRA
TAFLGA
TAF
KLGA 031242Z 0313/0412 05008KT P6SM FEW050
     FM031900 18010KT P6SM SCT250
     FM040200 15005KT P6SM BKN200
     FM040800 08007KT P6SM OVC100=



000
FTUS41 KOKX 031242 RRA
TAFGON
TAF
KGON 031242Z 0313/0412 36007KT P6SM FEW060
     FM031600 20009KT P6SM SCT250
     FM040000 VRB03KT P6SM BKN200
     FM040800 06005KT P6SM OVC100=



000
FTUS41 KOKX 031242 RRA
TAFISP
TAF
KISP 031242Z 0313/0412 36007KT P6SM FEW070
     FM031800 19009KT P6SM SCT250
     FM040200 VRB03KT P6SM BKN200
     FM040900 09006KT P6SM OVC100=



000
FTUS41 KOKX 031242 RRA
TAFSWF
TAF
KSWF 031242Z 0313/0418 VRB03KT P6SM SKC
     FM031400 02004KT P6SM SKC
     FM031800 24005KT P6SM SCT250
     FM040000 15004KT P6SM BKN250
     FM040300 VRB02KT P6SM OVC130
     FM041400 04007KT 5SM -RA SCT025 OVC050
      AMD NOT SKED=



000
FTUS41 KOKX 031242 RRA
TAFTEB
TAF
KTEB 031242Z 0313/0412 01007KT P6SM FEW050
     FM031700 VRB05KT P6SM SCT250
     FM032100 18008KT P6SM BKN250
     FM040200 15005KT P6SM BKN200
     FM040800 09005KT P6SM OVC100=



000
FTUS41 KOKX 031242 RRA
TAFBDR
TAF
KBDR 031242Z 0313/0412 01007KT P6SM SKC
     FM031500 18008KT P6SM SKC
     FM040200 VRB03KT P6SM BKN200
     FM040900 07005KT P6SM OVC100=



000
FTUS41 KOKX 031242 RRA
TAFISP
TAF
KISP 031242Z 0313/0412 36007KT P6SM FEW070
     FM031800 19009KT P6SM SCT250
     FM040200 VRB03KT P6SM BKN200
     FM040900 09006KT P6SM OVC100=



000
FTUS41 KOKX 031242 RRA
TAFEWR
TAF
KEWR 031242Z 0313/0418 01006KT P6SM FEW050
     FM031700 18006KT P6SM SCT250
     FM032100 15008KT P6SM BKN250
     FM040800 08005KT P6SM OVC100
     FM041400 05011G18KT 5SM -RA SCT025 OVC060=



000
FTUS41 KOKX 031242 RRA
TAFSWF
TAF
KSWF 031242Z 0313/0418 VRB03KT P6SM SKC
     FM031400 02004KT P6SM SKC
     FM031800 24005KT P6SM SCT250
     FM040000 15004KT P6SM BKN250
     FM040300 VRB02KT P6SM OVC130
     FM041400 04007KT 5SM -RA SCT025 OVC050
      AMD NOT SKED=



000
FTUS41 KOKX 031242 RRA
TAFBDR
TAF
KBDR 031242Z 0313/0412 01007KT P6SM SKC
     FM031500 18008KT P6SM SKC
     FM040200 VRB03KT P6SM BKN200
     FM040900 07005KT P6SM OVC100=



000
FTUS41 KOKX 030844 AAB
TAFISP
TAF AMD
KISP 030844Z 0309/0406 36006KT P6SM FEW070
     FM031800 19009KT P6SM SCT250
     FM040200 VRB03KT P6SM BKN200=



000
FTUS41 KOKX 030844 AAA
TAFTEB
TAF AMD
KTEB 030844Z 0309/0406 01005KT P6SM SKC
     FM031700 VRB05KT P6SM SCT250
     FM032100 18008KT P6SM BKN250
     FM040200 15005KT P6SM BKN200=



000
FTUS41 KOKX 030844 AAA
TAFGON
TAF AMD
KGON 030844Z 0309/0406 36007KT P6SM FEW060
     FM031600 19009KT P6SM SCT250
     FM040000 15004KT P6SM BKN200=



000
FTUS41 KOKX 030844 AAA
TAFBDR
TAF AMD
KBDR 030844Z 0309/0406 36006KT P6SM FEW070
     FM031500 18008KT P6SM SKC
     FM040200 VRB03KT P6SM BKN200=



000
FTUS41 KOKX 030844 AAA
TAFJFK
TAF AMD
KJFK 030844Z 0309/0412 36006KT P6SM SKC
     FM031300 03008KT P6SM SKC
     FM031700 18010KT P6SM SCT250
     FM040200 14005KT P6SM BKN200
     FM040800 08005KT P6SM OVC100=



000
FTUS41 KOKX 030844 AAA
TAFLGA
TAF AMD
KLGA 030844Z 0309/0406 01006KT P6SM SKC
     FM031300 05008KT P6SM SKC
     FM031900 18010KT P6SM SCT250
     FM040200 15005KT P6SM BKN200=



000
FTUS41 KOKX 030844 AAA
TAFEWR
TAF AMD
KEWR 030844Z 0309/0412 01006KT P6SM SKC
     FM031700 18006KT P6SM SCT250
     FM032100 15008KT P6SM BKN250
     FM040800 08005KT P6SM OVC100=



000
FTUS41 KOKX 030610 AAA
TAFISP
TAF AMD
KISP 030610Z 0306/0406 VRB03KT 6SM BR SCT100
      TEMPO 0306/0308 5SM BR
     FM030800 35005KT P6SM FEW070 SCT250
     FM031300 02007KT P6SM SKC
     FM031800 19009KT P6SM SCT250
     FM040200 VRB03KT P6SM BKN200=



000
FTUS41 KOKX 030610 AAA
TAFISP
TAF AMD
KISP 030610Z 0306/0406 VRB03KT 6SM BR SCT100
      TEMPO 0306/0308 5SM BR
     FM030800 35005KT P6SM FEW070 SCT250
     FM031300 02007KT P6SM SKC
     FM031800 19009KT P6SM SCT250
     FM040200 VRB03KT P6SM BKN200=



000
FTUS41 KOKX 030553
TAFBDR
TAF
KBDR 030553Z 0306/0406 36004KT P6SM SCT060 SCT250
     FM031500 18008KT P6SM SKC
     FM040200 VRB03KT P6SM BKN200=



000
FTUS41 KOKX 030553
TAFGON
TAF
KGON 030553Z 0306/0406 VRB04KT P6SM SCT060 SCT250
     FM031200 36007KT P6SM SKC
     FM031600 19009KT P6SM SCT250
     FM040000 15004KT P6SM BKN200=



000
FTUS41 KOKX 030553
TAFISP
TAF
KISP 030553Z 0306/0406 VRB03KT 6SM BR SCT100
     FM030800 35005KT P6SM FEW070 SCT250
     FM031300 02007KT P6SM SKC
     FM031800 19009KT P6SM SCT250
     FM040200 VRB03KT P6SM BKN200=



000
FTUS41 KOKX 030553
TAFGON
TAF
KGON 030553Z 0306/0406 VRB04KT P6SM SCT060 SCT250
     FM031200 36007KT P6SM SKC
     FM031600 19009KT P6SM SCT250
     FM040000 15004KT P6SM BKN200=



000
FTUS41 KOKX 030553
TAFISP
TAF
KISP 030553Z 0306/0406 VRB03KT 6SM BR SCT100
     FM030800 35005KT P6SM FEW070 SCT250
     FM031300 02007KT P6SM SKC
     FM031800 19009KT P6SM SCT250
     FM040200 VRB03KT P6SM BKN200=



000
FTUS41 KOKX 030553
TAFBDR
TAF
KBDR 030553Z 0306/0406 36004KT P6SM SCT060 SCT250
     FM031500 18008KT P6SM SKC
     FM040200 VRB03KT P6SM BKN200=



000
FTUS41 KOKX 030538
TAFSWF
TAF
KSWF 030538Z 0306/0412 VRB03KT P6SM SCT050 SCT250
     FM031400 02004KT P6SM SKC
     FM031800 24005KT P6SM SCT250
     FM040000 15004KT P6SM BKN250
     FM040300 VRB02KT P6SM OVC130
      AMD NOT SKED=



000
FTUS41 KOKX 030538
TAFTEB
TAF
KTEB 030538Z 0306/0406 VRB02KT P6SM FEW070 SCT250
     FM031200 02005KT P6SM SKC
     FM031700 VRB05KT P6SM SCT250
     FM032100 18008KT P6SM BKN250
     FM040200 15005KT P6SM BKN200=



000
FTUS41 KOKX 030538
TAFJFK
TAF
KJFK 030538Z 0306/0412 30006KT P6SM SCT070 SCT250
     FM030800 35006KT P6SM FEW250
     FM031300 02008KT P6SM SKC
     FM031700 18010KT P6SM SCT250
     FM040200 14005KT P6SM BKN200
     FM040800 08005KT P6SM OVC100=



000
FTUS41 KOKX 030538
TAFLGA
TAF
KLGA 030538Z 0306/0406 32006KT P6SM SCT070 SCT250
     FM030800 36006KT P6SM FEW250
     FM031300 05008KT P6SM SKC
     FM031900 18010KT P6SM SCT250
     FM040200 15005KT P6SM BKN200=



000
FTUS41 KOKX 030538
TAFEWR
TAF
KEWR 030538Z 0306/0412 32006KT P6SM SCT060 SCT250
     FM030800 35006KT P6SM FEW250
     FM031300 02008KT P6SM SKC
     FM031700 18008KT P6SM SCT250
     FM032100 15008KT P6SM BKN250
     FM040800 08005KT P6SM OVC100=



000
FTUS41 KOKX 030538
TAFTEB
TAF
KTEB 030538Z 0306/0406 VRB02KT P6SM FEW070 SCT250
     FM031200 02005KT P6SM SKC
     FM031700 VRB05KT P6SM SCT250
     FM032100 18008KT P6SM BKN250
     FM040200 15005KT P6SM BKN200=



000
FTUS41 KOKX 030538
TAFSWF
TAF
KSWF 030538Z 0306/0412 VRB03KT P6SM SCT050 SCT250
     FM031400 02004KT P6SM SKC
     FM031800 24005KT P6SM SCT250
     FM040000 15004KT P6SM BKN250
     FM040300 VRB02KT P6SM OVC130
      AMD NOT SKED=



000
FTUS41 KOKX 030538
TAFLGA
TAF
KLGA 030538Z 0306/0406 32006KT P6SM SCT070 SCT250
     FM030800 36006KT P6SM FEW250
     FM031300 05008KT P6SM SKC
     FM031900 18010KT P6SM SCT250
     FM040200 15005KT P6SM BKN200=



000
FTUS41 KOKX 030538
TAFEWR
TAF
KEWR 030538Z 0306/0412 32006KT P6SM SCT060 SCT250
     FM030800 35006KT P6SM FEW250
     FM031300 02008KT P6SM SKC
     FM031700 18008KT P6SM SCT250
     FM032100 15008KT P6SM BKN250
     FM040800 08005KT P6SM OVC100=



000
FTUS41 KOKX 030538
TAFJFK
TAF
KJFK 030538Z 0306/0412 30006KT P6SM SCT070 SCT250
     FM030800 35006KT P6SM FEW250
     FM031300 02008KT P6SM SKC
     FM031700 18010KT P6SM SCT250
     FM040200 14005KT P6SM BKN200
     FM040800 08005KT P6SM OVC100=



000
FTUS41 KOKX 030243 AAA
TAFISP
TAF AMD
KISP 030243Z 0303/0324 VRB04KT P6SM FEW070 BKN130
     FM030600 VRB02KT P6SM SCT250
     FM031200 02006KT P6SM SCT250
     FM031800 17007KT P6SM SCT250=



000
FTUS41 KOKX 030243 AAA
TAFJFK
TAF AMD
KJFK 030243Z 0303/0406 VRB04KT P6SM FEW050 BKN100
     FM030500 36005KT P6SM FEW250
     FM031100 02007KT P6SM FEW250
     FM031700 17008KT P6SM SCT250
     FM032000 18011KT P6SM BKN250
     FM040200 14005KT P6SM BKN180=



000
FTUS41 KOKX 030243 AAA
TAFTEB
TAF AMD
KTEB 030243Z 0303/0324 VRB03KT P6SM SCT250
     FM031900 17007KT P6SM BKN250=



000
FTUS41 KOKX 030243 AAA
TAFEWR
TAF AMD
KEWR 030243Z 0303/0406 VRB03KT P6SM FEW060 SCT120 BKN250
     FM030600 36006KT P6SM FEW250
     FM031600 05006KT P6SM SCT250
     FM031800 14007KT P6SM BKN250
     FM040200 13004KT P6SM BKN180=



000
FTUS41 KOKX 030243 AAA
TAFLGA
TAF AMD
KLGA 030243Z 0303/0324 VRB04KT P6SM BKN250
     FM030500 02006KT P6SM FEW250
     FM032000 16008KT P6SM BKN250=



000
FTUS41 KOKX 030243 AAA
TAFBDR
TAF AMD
KBDR 030243Z 0303/0324 VRB03KT P6SM FEW250
     FM031200 02007KT P6SM SCT250
     FM031700 18008KT P6SM SCT250=



000
FTUS41 KOKX 030243 AAA
TAFGON
TAF AMD
KGON 030243Z 0303/0324 18004KT P6SM VCSH BKN080
     FM030700 VRB03KT P6SM SCT250
     FM031300 02007KT P6SM FEW250
     FM031600 19006KT P6SM SCT250=



000
FTUS41 KOKX 022322
TAFTEB
TAF
KTEB 022322Z 0300/0324 21005KT P6SM FEW050 BKN250
     FM030100 VRB03KT P6SM SCT250
     FM031900 17007KT P6SM BKN250=



000
FTUS41 KOKX 022322
TAFLGA
TAF
KLGA 022322Z 0300/0324 19005KT P6SM FEW050 BKN250
     FM030100 VRB04KT P6SM BKN250
     FM030400 03006KT P6SM FEW250
     FM032000 16008KT P6SM BKN250=



000
FTUS41 KOKX 022322
TAFISP
TAF
KISP 022322Z 0300/0324 VRB02KT P6SM BKN070
     FM030300 VRB02KT P6SM SCT250
     FM031200 02006KT P6SM SCT250
     FM031800 17007KT P6SM SCT250=



000
FTUS41 KOKX 022322
TAFGON
TAF
KGON 022322Z 0300/0324 18004KT P6SM BKN080
     FM030400 VRB03KT P6SM SCT250
     FM031300 02007KT P6SM FEW250
     FM031600 19006KT P6SM SCT250=



000
FTUS41 KOKX 022322
TAFJFK
TAF
KJFK 022322Z 0300/0406 VRB04KT P6SM FEW060 BKN250
     FM030500 36005KT P6SM FEW250
     FM031100 02007KT P6SM FEW250
     FM031700 17008KT P6SM SCT250
     FM032000 18011KT P6SM BKN250
     FM040200 14005KT P6SM BKN180=



000
FTUS41 KOKX 022322
TAFSWF
TAF
KSWF 022322Z 0300/0406 24005KT P6SM BKN250
     FM030200 VRB03KT P6SM FEW250
      AMD NOT SKED=



000
FTUS41 KOKX 022322
TAFEWR
TAF
KEWR 022322Z 0300/0406 VRB04KT P6SM BKN250
     FM030600 01006KT P6SM FEW250
     FM031600 05006KT P6SM SCT250
     FM031800 14007KT P6SM BKN250
     FM040200 13004KT P6SM BKN180=



000
FTUS41 KOKX 022322
TAFBDR
TAF
KBDR 022322Z 0300/0324 15004KT P6SM BKN250
     FM030200 VRB03KT P6SM FEW250
     FM031200 02007KT P6SM SCT250
     FM031700 18008KT P6SM SCT250=



000
FTUS41 KOKX 022203 AAB
TAFEWR
TAF AMD
KEWR 022203Z 0222/0324 15005KT P6SM FEW060 BKN250
     FM030000 VRB04KT P6SM BKN250
     FM031100 02007KT P6SM BKN250
     FM031600 05006KT P6SM SCT250
     FM031800 14007KT P6SM SCT250=



000
FTUS41 KOKX 022202 AAB
TAFJFK
TAF AMD
KJFK 022202Z 0222/0324 15006KT P6SM FEW060 BKN250
     FM030000 VRB04KT P6SM BKN250
     FM031100 02007KT P6SM SKC
     FM031500 06007KT P6SM SCT250
     FM031700 17009KT P6SM SCT250=



000
FTUS41 KOKX 022107 AAB
TAFBDR
TAF AMD
KBDR 022107Z 0221/0318 VRB03KT P6SM BKN200
     FM031200 03007KT P6SM SKC
     FM031500 06007KT P6SM SKC
     FM031700 14008KT P6SM SCT250=



000
FTUS41 KOKX 022107 AAB
TAFBDR
TAF AMD
KBDR 022107Z 0221/0318 VRB03KT P6SM BKN200
     FM031200 03007KT P6SM SKC
     FM031500 06007KT P6SM SKC
     FM031700 14008KT P6SM SCT250=



000
FTUS41 KOKX 021945 AAA
TAFJFK
TAF AMD
KJFK 021945Z 0220/0324 17010KT P6SM SCT100 BKN250
     FM030000 VRB04KT P6SM BKN250
     FM031100 02007KT P6SM SKC
     FM031500 06007KT P6SM SCT250
     FM031700 17009KT P6SM SCT250=



000
FTUS41 KOKX 021945 AAA
TAFGON
TAF AMD
KGON 021945Z 0220/0318 21006KT P6SM BKN250
     FM022200 VRB03KT P6SM BKN250
     FM031300 03007KT P6SM SKC
     FM031600 15008KT P6SM SCT250=



000
FTUS41 KOKX 021945 AAA
TAFBDR
TAF AMD
KBDR 021945Z 0220/0318 15009KT P6SM BKN250
     FM022300 VRB04KT P6SM SCT100 BKN200
     FM031200 03007KT P6SM SKC
     FM031500 06007KT P6SM SKC
     FM031700 14008KT P6SM SCT250=



000
FTUS41 KOKX 021945 AAA
TAFEWR
TAF AMD
KEWR 021945Z 0220/0324 16007KT P6SM SCT070 BKN250
     FM030000 VRB04KT P6SM SCT070 BKN200
     FM031100 02007KT P6SM BKN250
     FM031600 05006KT P6SM SCT250
     FM031800 14007KT P6SM SCT250=



000
FTUS41 KOKX 021945 AAA
TAFLGA
TAF AMD
KLGA 021945Z 0220/0318 17009KT P6SM SCT050 BKN200
      TEMPO 0220/0223 BKN050
     FM030100 VRB05KT P6SM BKN250
     FM031100 02007KT P6SM SKC
     FM031500 04007KT P6SM SKC=



000
FTUS41 KOKX 021945 AAA
TAFISP
TAF AMD
KISP 021945Z 0220/0318 17008KT P6SM SCT100 BKN250
     FM030000 VRB04KT P6SM SCT070 BKN200
     FM031200 02006KT P6SM SKC
     FM031600 05007KT P6SM SCT250=



000
FTUS41 KOKX 021945 AAA
TAFTEB
TAF AMD
KTEB 021945Z 0220/0318 VRB05KT P6SM SCT070 BKN250
     FM022030 16007KT P6SM SCT050 BKN200
     FM030000 VRB04KT P6SM SCT250=



000
FTUS41 KOKX 021722
TAFJFK
TAF
KJFK 021722Z 0218/0324 17010KT P6SM SCT120 BKN250
     FM030000 VRB04KT P6SM BKN250
     FM031100 02007KT P6SM SKC
     FM031500 06007KT P6SM SCT250
     FM031700 17009KT P6SM SCT250=



000
FTUS41 KOKX 021722
TAFTEB
TAF
KTEB 021722Z 0218/0318 VRB04KT P6SM SCT070 BKN250
     FM022000 16007KT P6SM SCT050 BKN200
     FM030000 VRB04KT P6SM SCT250=



000
FTUS41 KOKX 021722
TAFEWR
TAF
KEWR 021722Z 0218/0324 13007KT P6SM SCT070 BKN250
     FM022300 VRB04KT P6SM SCT070 BKN200
     FM031100 02007KT P6SM BKN250
     FM031600 05006KT P6SM SCT250
     FM031800 14007KT P6SM SCT250=



000
FTUS41 KOKX 021722
TAFISP
TAF
KISP 021722Z 0218/0318 18008KT P6SM SCT120 BKN250
     FM030000 VRB04KT P6SM SCT070 BKN200
     FM031200 02006KT P6SM SKC
     FM031600 05007KT P6SM SCT250=



000
FTUS41 KOKX 021722
TAFSWF
TAF
KSWF 021722Z 0218/0324 VRB04KT P6SM SCT250
      AMD NOT SKED=



000
FTUS41 KOKX 021722
TAFBDR
TAF
KBDR 021722Z 0218/0318 15009KT P6SM BKN250
     FM022300 VRB04KT P6SM SCT100 BKN200
     FM031200 03007KT P6SM SKC
     FM031500 06007KT P6SM SKC
     FM031700 14008KT P6SM SCT250=



000
FTUS41 KOKX 021722
TAFGON
TAF
KGON 021722Z 0218/0318 19008KT P6SM BKN250
     FM022300 VRB03KT P6SM BKN250
     FM031300 03007KT P6SM SKC
     FM031600 15008KT P6SM SCT250=



000
FTUS41 KOKX 021722
TAFSWF
TAF
KSWF 021722Z 0218/0324 VRB04KT P6SM SCT250
      AMD NOT SKED=



000
FTUS41 KOKX 021722
TAFGON
TAF
KGON 021722Z 0218/0318 19008KT P6SM BKN250
     FM022300 VRB03KT P6SM BKN250
     FM031300 03007KT P6SM SKC
     FM031600 15008KT P6SM SCT250=



000
FTUS41 KOKX 021722
TAFISP
TAF
KISP 021722Z 0218/0318 18008KT P6SM SCT120 BKN250
     FM030000 VRB04KT P6SM SCT070 BKN200
     FM031200 02006KT P6SM SKC
     FM031600 05007KT P6SM SCT250=



000
FTUS41 KOKX 021722
TAFBDR
TAF
KBDR 021722Z 0218/0318 15009KT P6SM BKN250
     FM022300 VRB04KT P6SM SCT100 BKN200
     FM031200 03007KT P6SM SKC
     FM031500 06007KT P6SM SKC
     FM031700 14008KT P6SM SCT250=



000
FTUS41 KOKX 021722
TAFJFK
TAF
KJFK 021722Z 0218/0324 17010KT P6SM SCT120 BKN250
     FM030000 VRB04KT P6SM BKN250
     FM031100 02007KT P6SM SKC
     FM031500 06007KT P6SM SCT250
     FM031700 17009KT P6SM SCT250=



000
FTUS41 KOKX 021722
TAFLGA
TAF
KLGA 021722Z 0218/0318 17008KT P6SM SCT050 BKN200
     FM030100 VRB04KT P6SM BKN250
     FM031000 04007KT P6SM SCT250=



000
FTUS41 KOKX 021722
TAFTEB
TAF
KTEB 021722Z 0218/0318 VRB04KT P6SM SCT070 BKN250
     FM022000 16007KT P6SM SCT050 BKN200
     FM030000 VRB04KT P6SM SCT250=



000
FTUS41 KOKX 021722
TAFEWR
TAF
KEWR 021722Z 0218/0324 13007KT P6SM SCT070 BKN250
     FM022300 VRB04KT P6SM SCT070 BKN200
     FM031100 02007KT P6SM BKN250
     FM031600 05006KT P6SM SCT250
     FM031800 14007KT P6SM SCT250=



000
FTUS41 KOKX 021722
TAFLGA
TAF
KLGA 021722Z 0218/0318 17008KT P6SM SCT050 BKN200
     FM030100 VRB04KT P6SM BKN250
     FM031000 04007KT P6SM SCT250=



000
FTUS41 KOKX 021430 AAA
TAFLGA
TAF AMD
KLGA 021430Z 0215/0312 VRB05KT P6SM SCT070 BKN250
     FM021800 18009KT P6SM SCT050 BKN200
     FM030200 VRB04KT P6SM SCT070 BKN200
     FM030800 02006KT P6SM BKN250=



000
FTUS41 KOKX 021430 AAA
TAFBDR
TAF AMD
KBDR 021430Z 0215/0312 VRB03KT P6SM BKN250
     FM021600 17007KT P6SM FEW060 BKN200
     FM022300 VRB04KT P6SM SCT100 BKN200=



000
FTUS41 KOKX 021430 AAB
TAFEWR
TAF AMD
KEWR 021430Z 0215/0318 VRB05KT P6SM SCT200 BKN250
     FM021800 16008KT P6SM SCT050 BKN200
     FM030100 VRB03KT P6SM SCT070 BKN200
     FM030800 01006KT P6SM BKN250
     FM031700 12008KT P6SM FEW050 BKN250=



000
FTUS41 KOKX 021430 AAA
TAFTEB
TAF AMD
KTEB 021430Z 0215/0312 VRB04KT P6SM SCT070 BKN250
     FM021900 18007KT P6SM SCT050 BKN200
     FM030000 VRB03KT P6SM SCT070 BKN200=



000
FTUS41 KOKX 021430 AAA
TAFJFK
TAF AMD
KJFK 021430Z 0215/0318 VRB04KT P6SM FEW080 BKN250
     FM021700 17010KT P6SM SCT050 BKN200
     FM030200 VRB04KT P6SM SCT070 BKN200
     FM031100 02006KT P6SM BKN250
     FM031700 16008KT P6SM FEW050 BKN250=



000
FTUS41 KOKX 021430 AAA
TAFISP
TAF AMD
KISP 021430Z 0215/0312 VRB04KT P6SM SCT150 BKN250
     FM021700 19009KT P6SM FEW050 BKN200
     FM030000 VRB04KT P6SM SCT070 BKN200=



000
FTUS41 KOKX 021430 AAA
TAFGON
TAF AMD
KGON 021430Z 0215/0312 20008KT P6SM FEW060 BKN250
     FM022300 VRB03KT P6SM SCT100 BKN200=



000
FTUS41 KOKX 021249 AAA
TAFEWR
TAF AMD
KEWR 021249Z 0213/0318 VRB05KT P6SM SCT200 BKN250
     FM021700 17008KT P6SM SCT050 BKN200
     FM030200 VRB03KT P6SM SCT070 BKN200
     FM030700 01006KT P6SM BKN250
     FM031700 12008KT P6SM FEW050 BKN250=



000
FTUS41 KOKX 021249 AAA
TAFEWR
TAF AMD
KEWR 021249Z 0213/0318 VRB05KT P6SM SCT200 BKN250
     FM021700 17008KT P6SM SCT050 BKN200
     FM030200 VRB03KT P6SM SCT070 BKN200
     FM030700 01006KT P6SM BKN250
     FM031700 12008KT P6SM FEW050 BKN250=



000
FTUS41 KOKX 021132
TAFISP
TAF
KISP 021132Z 0212/0312 35004KT P6SM FEW070 BKN250
     FM021800 20010KT P6SM FEW050 BKN200
     FM030000 21005KT P6SM SCT070 BKN200
     FM030300 VRB03KT P6SM SCT070 BKN200
     FM031000 02005KT P6SM BKN250=



000
FTUS41 KOKX 021132
TAFEWR
TAF
KEWR 021132Z 0212/0318 01004KT P6SM SCT070 BKN250
     FM021700 17008KT P6SM SCT050 BKN200
     FM030200 VRB03KT P6SM SCT070 BKN200
     FM030700 01006KT P6SM BKN250
     FM031700 12008KT P6SM FEW050 BKN250=



000
FTUS41 KOKX 021132
TAFLGA
TAF
KLGA 021132Z 0212/0312 35004KT P6SM SCT070 SCT250
     FM021300 03005KT P6SM SCT070 BKN250
     FM021900 18010KT P6SM SCT050 BKN200
     FM030200 21005KT P6SM SCT070 BKN200
     FM030400 VRB04KT P6SM SCT070 BKN200
     FM030700 02006KT P6SM BKN250=



000
FTUS41 KOKX 021132
TAFJFK
TAF
KJFK 021132Z 0212/0318 36004KT P6SM SCT070 SCT250
     FM021400 VRB04KT P6SM SCT070 BKN250
     FM021700 18010KT P6SM SCT050 BKN200
     FM030200 21005KT P6SM SCT070 BKN200
     FM030400 VRB04KT P6SM SCT070 BKN200
     FM030700 02006KT P6SM BKN250
     FM031700 16008KT P6SM FEW050 BKN250=



000
FTUS41 KOKX 021132
TAFTEB
TAF
KTEB 021132Z 0212/0312 VRB03KT P6SM SCT070 BKN250
     FM021700 21007KT P6SM SCT050 BKN200
     FM022000 18007KT P6SM SCT050 BKN200
     FM030100 VRB03KT P6SM SCT070 BKN200
     FM031000 01005KT P6SM BKN250=



000
FTUS41 KOKX 021132
TAFBDR
TAF
KBDR 021132Z 0212/0312 VRB03KT P6SM BKN250
     FM021400 17005KT P6SM FEW060 BKN250
     FM021600 21009KT P6SM FEW060 BKN200
     FM030100 VRB03KT P6SM SCT100 BKN200
     FM031000 02005KT P6SM BKN250=



000
FTUS41 KOKX 021132
TAFSWF
TAF
KSWF 021132Z 0212/0318 VRB04KT P6SM BKN200
     FM021600 24006KT P6SM BKN060 BKN200
     FM030000 VRB03KT P6SM SCT060 SCT250
     FM031200 04005KT P6SM FEW050 SCT250
      AMD NOT SKED=



000
FTUS41 KOKX 021132
TAFGON
TAF
KGON 021132Z 0212/0312 VRB03KT P6SM SCT250
     FM021400 21008KT P6SM FEW060 BKN250
     FM030100 VRB03KT P6SM SCT100 BKN200
     FM031000 01005KT P6SM BKN250=



000
FTUS41 KOKX 020830 AAA
TAFLGA
TAF AMD
KLGA 020830Z 0209/0306 34004KT P6SM SCT250
     FM021300 03005KT P6SM BKN250
     FM021900 18010KT P6SM FEW050 BKN250
     FM030200 21005KT P6SM SCT150 BKN250
     FM030400 VRB04KT P6SM SCT150 BKN250=



000
FTUS41 KOKX 020830 AAA
TAFTEB
TAF AMD
KTEB 020830Z 0209/0306 VRB02KT P6SM SCT250
     FM021700 21007KT P6SM FEW050 BKN250
     FM030100 VRB03KT P6SM SCT150 BKN250=



000
FTUS41 KOKX 020830 AAA
TAFISP
TAF AMD
KISP 020830Z 0209/0306 VRB03KT P6SM SCT250
     FM021200 35005KT P6SM BKN250
     FM021800 20010KT P6SM FEW050 BKN250
     FM030000 21005KT P6SM SCT150 BKN250
     FM030300 VRB03KT P6SM SCT150 BKN250=



000
FTUS41 KOKX 020830 AAA
TAFBDR
TAF AMD
KBDR 020830Z 0209/0306 VRB03KT P6SM SCT250
     FM021400 17005KT P6SM BKN250
     FM021800 21009KT P6SM FEW050 BKN250
     FM030100 VRB03KT P6SM SCT150 BKN250=



000
FTUS41 KOKX 020830 AAA
TAFJFK
TAF AMD
KJFK 020830Z 0209/0312 34004KT P6SM SCT250
     FM021400 VRB04KT P6SM BKN250
     FM021700 18010KT P6SM FEW050 BKN250
     FM030200 21005KT P6SM SCT150 BKN250
     FM030400 VRB04KT P6SM SCT150 BKN250
     FM030700 02006KT P6SM BKN250=



000
FTUS41 KOKX 020830 AAA
TAFEWR
TAF AMD
KEWR 020830Z 0209/0312 VRB03KT P6SM SCT250
     FM021200 35005KT P6SM BKN250
     FM021700 20008KT P6SM FEW050 BKN250
     FM030200 VRB03KT P6SM SCT150 BKN250
     FM030700 01006KT P6SM BKN250=



000
FTUS41 KOKX 020830 AAA
TAFEWR
TAF AMD
KEWR 020830Z 0209/0312 VRB03KT P6SM SCT250
     FM021200 35005KT P6SM BKN250
     FM021700 20008KT P6SM FEW050 BKN250
     FM030200 VRB03KT P6SM SCT150 BKN250
     FM030700 01006KT P6SM BKN250=



000
FTUS41 KOKX 020815 AAA
TAFGON
TAF AMD
KGON 020815Z 0208/0306 VRB03KT 3SM BR SKC
      TEMPO 0208/0211 1 1/2SM BR
     FM021200 VRB03KT P6SM SCT250
     FM021400 21008KT P6SM FEW050 BKN250
     FM030100 VRB03KT P6SM SCT150 BKN250=



000
FTUS41 KOKX 020555
TAFGON
TAF
KGON 020555Z 0206/0306 33005KT P6SM SCT250
     FM020800 VRB03KT P6SM SCT250
     FM021400 21008KT P6SM FEW050 BKN250
     FM030100 VRB03KT P6SM SCT150 BKN250=



000
FTUS41 KOKX 020555
TAFBDR
TAF
KBDR 020555Z 0206/0306 27004KT P6SM SCT250
     FM020800 VRB03KT P6SM SCT250
     FM021400 17005KT P6SM BKN250
     FM021800 21009KT P6SM FEW050 BKN250
     FM030100 VRB03KT P6SM SCT150 BKN250=



000
FTUS41 KOKX 020555
TAFBDR
TAF
KBDR 020555Z 0206/0306 27004KT P6SM SCT250
     FM020800 VRB03KT P6SM SCT250
     FM021400 17005KT P6SM BKN250
     FM021800 21009KT P6SM FEW050 BKN250
     FM030100 VRB03KT P6SM SCT150 BKN250=



000
FTUS41 KOKX 020555
TAFGON
TAF
KGON 020555Z 0206/0306 33005KT P6SM SCT250
     FM020800 VRB03KT P6SM SCT250
     FM021400 21008KT P6SM FEW050 BKN250
     FM030100 VRB03KT P6SM SCT150 BKN250=



000
FTUS41 KOKX 020548
TAFISP
TAF
KISP 020548Z 0206/0306 29005KT P6SM SCT250
     FM020800 VRB03KT P6SM SCT250
     FM021200 35005KT P6SM BKN250
     FM021800 20010KT P6SM FEW050 BKN250
     FM030000 21005KT P6SM SCT150 BKN250
     FM030300 VRB03KT P6SM SCT150 BKN250=



000
FTUS41 KOKX 020548
TAFSWF
TAF
KSWF 020548Z 0206/0312 27004KT P6SM SCT250
     FM021200 VRB04KT P6SM BKN250
     FM021600 24006KT P6SM FEW045 BKN250
     FM030000 VRB03KT P6SM SCT250
      AMD NOT SKED=



000
FTUS41 KOKX 020535
TAFLGA
TAF
KLGA 020535Z 0206/0306 31009KT P6SM SCT250
     FM020800 34005KT P6SM SCT250
     FM021200 04005KT P6SM BKN250
     FM021900 18010KT P6SM FEW050 BKN250
     FM030200 21005KT P6SM SCT150 BKN250
     FM030400 VRB04KT P6SM SCT150 BKN250=



000
FTUS41 KOKX 020535
TAFJFK
TAF
KJFK 020535Z 0206/0312 29009KT P6SM SCT250
     FM020800 33005KT P6SM SCT250
     FM021300 VRB04KT P6SM BKN250
     FM021700 18010KT P6SM FEW050 BKN250
     FM030200 21005KT P6SM SCT150 BKN250
     FM030400 VRB04KT P6SM SCT150 BKN250
     FM030700 02006KT P6SM BKN250=



000
FTUS41 KOKX 020535
TAFTEB
TAF
KTEB 020535Z 0206/0306 VRB03KT P6SM SCT250
     FM021700 21007KT P6SM FEW050 BKN250
     FM030100 VRB03KT P6SM SCT150 BKN250=



000
FTUS41 KOKX 020535
TAFEWR
TAF
KEWR 020535Z 0206/0312 28008KT P6SM SCT250
     FM020900 33005KT P6SM SCT250
     FM021200 VRB04KT P6SM BKN250
     FM021700 20008KT P6SM FEW050 BKN250
     FM030200 VRB03KT P6SM SCT150 BKN250
     FM030700 01006KT P6SM BKN250=



000
FTUS41 KOKX 020231 AAA
TAFISP
TAF AMD
KISP 020231Z 0203/0224 VRB02KT P6SM SCT050 BKN250
     FM021200 35005KT P6SM SCT050 SCT150 BKN250
     FM021600 18010KT P6SM BKN150=



000
FTUS41 KOKX 020231 AAA
TAFBDR
TAF AMD
KBDR 020231Z 0203/0224 28007KT P6SM SCT250
     FM020500 VRB03KT P6SM SCT250
     FM021200 36005KT P6SM SCT050 SCT150 BKN250
     FM021600 18008KT P6SM BKN150=



000
FTUS41 KOKX 020231 AAB
TAFLGA
TAF AMD
KLGA 020231Z 0203/0224 28008KT P6SM SCT080 SCT250
     FM020500 VRB04KT P6SM SCT050 BKN250
     FM021000 35005KT P6SM SCT050 SCT150 BKN250
     FM021500 02008KT P6SM BKN150
     FM022000 15008KT P6SM BKN150=



000
FTUS41 KOKX 020231 AAB
TAFSWF
TAF AMD
KSWF 020231Z 0203/0306 28006KT P6SM SCT050 SCT250
     FM020500 VRB03KT P6SM SCT050 BKN250
     FM021500 28005KT P6SM SCT050 SCT150 BKN250
     FM030200 VRB02KT P6SM SCT150 BKN250
      AMD NOT SKED=



000
FTUS41 KOKX 020231 AAA
TAFTEB
TAF AMD
KTEB 020231Z 0203/0224 VRB03KT P6SM SCT250
     FM021000 35004KT P6SM SCT050 SCT150 BKN250
     FM021900 25008KT P6SM BKN150=



000
FTUS41 KOKX 020231 AAA
TAFGON
TAF AMD
KGON 020231Z 0203/0224 23005KT P6SM SCT050 SCT250
     FM020600 VRB02KT P6SM SCT050 BKN250
     FM021500 22007KT P6SM SCT050 SCT150 BKN250
     FM021800 19009KT P6SM BKN150=



000
FTUS41 KOKX 020231 AAB
TAFEWR
TAF AMD
KEWR 020231Z 0203/0306 25008KT P6SM SCT050 SCT250
     FM020500 VRB04KT P6SM SCT050 BKN250
     FM021000 36005KT P6SM SCT050 SCT150 BKN250
     FM021800 22008KT P6SM BKN150
     FM030200 VRB02KT P6SM SCT150 BKN250=



000
FTUS41 KOKX 020231 AAB
TAFJFK
TAF AMD
KJFK 020231Z 0203/0306 28010KT P6SM SCT050 SCT250
     FM020500 VRB04KT P6SM SCT050 BKN250
     FM021000 35005KT P6SM SCT050 SCT150 BKN250
     FM021600 18010KT P6SM BKN150
     FM030200 VRB02KT P6SM SCT150 BKN250=



000
FTUS41 KOKX 020231 AAB
TAFLGA
TAF AMD
KLGA 020231Z 0203/0224 28008KT P6SM SCT080 SCT250
     FM020500 VRB04KT P6SM SCT050 BKN250
     FM021000 35005KT P6SM SCT050 SCT150 BKN250
     FM021500 02008KT P6SM BKN150
     FM022000 15008KT P6SM BKN150=



000
FTUS41 KOKX 020231 AAA
TAFBDR
TAF AMD
KBDR 020231Z 0203/0224 28007KT P6SM SCT250
     FM020500 VRB03KT P6SM SCT250
     FM021200 36005KT P6SM SCT050 SCT150 BKN250
     FM021600 18008KT P6SM BKN150=



000
FTUS41 KOKX 020231 AAB
TAFSWF
TAF AMD
KSWF 020231Z 0203/0306 28006KT P6SM SCT050 SCT250
     FM020500 VRB03KT P6SM SCT050 BKN250
     FM021500 28005KT P6SM SCT050 SCT150 BKN250
     FM030200 VRB02KT P6SM SCT150 BKN250
      AMD NOT SKED=



000
FTUS41 KOKX 020231 AAA
TAFGON
TAF AMD
KGON 020231Z 0203/0224 23005KT P6SM SCT050 SCT250
     FM020600 VRB02KT P6SM SCT050 BKN250
     FM021500 22007KT P6SM SCT050 SCT150 BKN250
     FM021800 19009KT P6SM BKN150=



000
FTUS41 KOKX 020231 AAB
TAFEWR
TAF AMD
KEWR 020231Z 0203/0306 25008KT P6SM SCT050 SCT250
     FM020500 VRB04KT P6SM SCT050 BKN250
     FM021000 36005KT P6SM SCT050 SCT150 BKN250
     FM021800 22008KT P6SM BKN150
     FM030200 VRB02KT P6SM SCT150 BKN250=



000
FTUS41 KOKX 020231 AAB
TAFJFK
TAF AMD
KJFK 020231Z 0203/0306 28010KT P6SM SCT050 SCT250
     FM020500 VRB04KT P6SM SCT050 BKN250
     FM021000 35005KT P6SM SCT050 SCT150 BKN250
     FM021600 18010KT P6SM BKN150
     FM030200 VRB02KT P6SM SCT150 BKN250=



000
FTUS41 KOKX 020231 AAA
TAFISP
TAF AMD
KISP 020231Z 0203/0224 VRB02KT P6SM SCT050 BKN250
     FM021200 35005KT P6SM SCT050 SCT150 BKN250
     FM021600 18010KT P6SM BKN150=



000
FTUS41 KOKX 020231 AAA
TAFTEB
TAF AMD
KTEB 020231Z 0203/0224 VRB03KT P6SM SCT250
     FM021000 35004KT P6SM SCT050 SCT150 BKN250
     FM021900 25008KT P6SM BKN150=



000
FTUS41 KOKX 020107 AAA
TAFSWF
TAF AMD
KSWF 020107Z 0201/0306 25015G23KT P6SM SCT050 BKN250
     FM020300 28008KT P6SM SCT050 SCT250
     FM020500 VRB03KT P6SM SCT050 BKN250
     FM021500 28005KT P6SM SCT050 SCT150 BKN250
     FM030200 VRB02KT P6SM SCT150 BKN250
      AMD NOT SKED=



000
FTUS41 KOKX 020107 AAA
TAFSWF
TAF AMD
KSWF 020107Z 0201/0306 25015G23KT P6SM SCT050 BKN250
     FM020300 28008KT P6SM SCT050 SCT250
     FM020500 VRB03KT P6SM SCT050 BKN250
     FM021500 28005KT P6SM SCT050 SCT150 BKN250
     FM030200 VRB02KT P6SM SCT150 BKN250
      AMD NOT SKED=



000
FTUS41 KOKX 020106 AAA
TAFJFK
TAF AMD
KJFK 020106Z 0201/0306 26015G22KT P6SM SCT050 BKN250
     FM020300 28010KT P6SM SCT050 SCT250
     FM020500 VRB04KT P6SM SCT050 BKN250
     FM021000 35005KT P6SM SCT050 SCT150 BKN250
     FM021600 18010KT P6SM BKN150
     FM030200 VRB02KT P6SM SCT150 BKN250=



000
FTUS41 KOKX 020106 AAA
TAFEWR
TAF AMD
KEWR 020106Z 0201/0306 27008KT P6SM SCT050 SCT250
     FM020500 VRB04KT P6SM SCT050 BKN250
     FM021000 36005KT P6SM SCT050 SCT150 BKN250
     FM021800 22008KT P6SM BKN150
     FM030200 VRB02KT P6SM SCT150 BKN250=



000
FTUS41 KOKX 020005 AAA
TAFLGA
TAF AMD
KLGA 020005Z 0200/0224 28008KT P6SM SCT080 SCT250
     FM020500 VRB04KT P6SM SCT050 BKN250
     FM021000 35005KT P6SM SCT050 SCT150 BKN250
     FM021500 02008KT P6SM BKN150
     FM022000 15008KT P6SM BKN150=



000
FTUS41 KOKX 020005 AAA
TAFLGA
TAF AMD
KLGA 020005Z 0200/0224 28008KT P6SM SCT080 SCT250
     FM020500 VRB04KT P6SM SCT050 BKN250
     FM021000 35005KT P6SM SCT050 SCT150 BKN250
     FM021500 02008KT P6SM BKN150
     FM022000 15008KT P6SM BKN150=



000
FTUS41 KOKX 012331
TAFISP
TAF
KISP 012331Z 0200/0224 22009KT P6SM SCT050 BKN250
     FM020200 25006KT P6SM SCT050 SCT250
     FM020500 VRB02KT P6SM SCT050 BKN250
     FM021200 35005KT P6SM SCT050 SCT150 BKN250
     FM021600 18010KT P6SM BKN150=



000
FTUS41 KOKX 012331
TAFJFK
TAF
KJFK 012331Z 0200/0306 26015G22KT P6SM SCT050 BKN250
     FM020100 28010KT P6SM SCT050 SCT250
     FM020500 VRB04KT P6SM SCT050 BKN250
     FM021000 35005KT P6SM SCT050 SCT150 BKN250
     FM021600 18010KT P6SM BKN150
     FM030200 VRB02KT P6SM SCT150 BKN250=



000
FTUS41 KOKX 012331
TAFLGA
TAF
KLGA 012331Z 0200/0224 26015KT P6SM SCT050 BKN250
     FM020100 28008KT P6SM SCT050 SCT250
     FM020500 VRB04KT P6SM SCT050 BKN250
     FM021000 35005KT P6SM SCT050 SCT150 BKN250
     FM021500 02008KT P6SM BKN150
     FM022000 15008KT P6SM BKN150=



000
FTUS41 KOKX 012331
TAFGON
TAF
KGON 012331Z 0200/0224 22009KT P6SM SCT050 BKN250
     FM020200 25005KT P6SM SCT050 SCT250
     FM020500 VRB02KT P6SM SCT050 BKN250
     FM021500 22007KT P6SM SCT050 SCT150 BKN250
     FM021800 19009KT P6SM BKN150=



000
FTUS41 KOKX 012331
TAFBDR
TAF
KBDR 012331Z 0200/0224 25007KT P6SM SCT250
     FM020300 VRB03KT P6SM SCT250
     FM021200 36005KT P6SM SCT050 SCT150 BKN250
     FM021600 18008KT P6SM BKN150=



000
FTUS41 KOKX 012331
TAFEWR
TAF
KEWR 012331Z 0200/0306 26015G22KT P6SM SCT050 BKN250
     FM020100 28008KT P6SM SCT050 SCT250
     FM020500 VRB04KT P6SM SCT050 BKN250
     FM021000 36005KT P6SM SCT050 SCT150 BKN250
     FM021800 22008KT P6SM BKN150
     FM030200 VRB02KT P6SM SCT150 BKN250=



000
FTUS41 KOKX 012331
TAFSWF
TAF
KSWF 012331Z 0200/0306 25015G23KT P6SM SCT050 BKN250
     FM020100 28008KT P6SM SCT050 SCT250
     FM020500 VRB03KT P6SM SCT050 BKN250
     FM021500 28005KT P6SM SCT050 SCT150 BKN250
     FM030200 VRB02KT P6SM SCT150 BKN250
      AMD NOT SKED=



000
FTUS41 KOKX 012331
TAFTEB
TAF
KTEB 012331Z 0200/0224 25012G18KT P6SM SCT050 BKN250
     FM020100 26005KT P6SM SCT050 SCT250
     FM020500 VRB03KT P6SM SCT250
     FM021000 35004KT P6SM SCT050 SCT150 BKN250
     FM021900 25008KT P6SM BKN150=



000
FTUS41 KOKX 012158 AAC
TAFJFK
TAF AMD
KJFK 012158Z 0122/0224 24015G22KT P6SM BKN050
     FM020000 24011KT P6SM BKN050
     FM020500 VRB04KT P6SM SCT050 BKN250
     FM021200 36005KT P6SM SCT050 BKN250
     FM021700 18009KT P6SM SCT050 BKN250=



000
FTUS41 KOKX 011933 AAA
TAFLGA
TAF AMD
KLGA 011933Z 0120/0218 24015G23KT P6SM BKN050
     FM020000 25010KT P6SM BKN050
     FM020500 VRB04KT P6SM SCT050 BKN250
     FM021200 04005KT P6SM SCT050 BKN250=



000
FTUS41 KOKX 011933 AAB
TAFJFK
TAF AMD
KJFK 011933Z 0120/0224 19012G19KT P6SM BKN050
     FM020000 24011KT P6SM BKN050
     FM020500 VRB04KT P6SM SCT050 BKN250
     FM021200 36005KT P6SM SCT050 BKN250
     FM021700 18009KT P6SM SCT050 BKN250=



000
FTUS41 KOKX 011933 AAA
TAFBDR
TAF AMD
KBDR 011933Z 0120/0218 23014KT P6SM BKN050
     FM012300 24009KT P6SM BKN050
     FM020100 27005KT P6SM BKN050
     FM020600 VRB04KT P6SM SCT050 BKN250
     FM021500 18005KT P6SM SCT050 BKN250=



000
FTUS41 KOKX 011933 AAA
TAFEWR
TAF AMD
KEWR 011933Z 0120/0224 25014G22KT P6SM BKN050
     FM020000 27010KT P6SM BKN050
     FM020500 VRB04KT P6SM SCT050 BKN250
     FM021200 36005KT P6SM SCT050 BKN250
     FM021800 15007KT P6SM SCT050 BKN250=



000
FTUS41 KOKX 011933 AAA
TAFSWF
TAF AMD
KSWF 011933Z 0120/0224 27013G21KT P6SM BKN035
     FM012300 28009KT P6SM BKN040
     FM020100 29005KT P6SM BKN050
     FM020500 VRB03KT P6SM SCT050 BKN250
     FM021600 28006KT P6SM SCT050 BKN250
      AMD NOT SKED=



000
FTUS41 KOKX 011933 AAA
TAFISP
TAF AMD
KISP 011933Z 0120/0218 22013G19KT P6SM BKN050
     FM012300 23011KT P6SM BKN050
     FM020100 24006KT P6SM BKN050
     FM020600 VRB04KT P6SM SCT050 BKN250
     FM021600 11005KT P6SM SCT050 BKN250=



000
FTUS41 KOKX 011933 AAA
TAFGON
TAF AMD
KGON 011933Z 0120/0218 23013KT P6SM FEW020 BKN050
     FM012300 24009KT P6SM BKN050
     FM020100 27005KT P6SM BKN050
     FM020600 VRB04KT P6SM SCT050 BKN250
     FM021500 18005KT P6SM SCT050 BKN250=



000
FTUS41 KOKX 011933 AAA
TAFTEB
TAF AMD
KTEB 011933Z 0120/0218 25013G18KT P6SM BKN050
     FM012300 26011KT P6SM BKN050
     FM020100 27006KT P6SM BKN050
     FM020500 VRB04KT P6SM SCT050 BKN250
     FM021200 35005KT P6SM SCT050 BKN250=



000
FTUS41 KOKX 011841 AAA
TAFJFK
TAF AMD
KJFK 011841Z 0119/0224 20013G20KT P6SM BKN050
     FM020000 24011KT P6SM BKN050
     FM020500 VRB04KT P6SM SCT050 BKN250
     FM021200 36005KT P6SM SCT050 BKN250
     FM021700 18009KT P6SM SCT050 BKN250=



000
FTUS41 KOKX 011727
TAFISP
TAF
KISP 011727Z 0118/0218 22013G20KT P6SM FEW025 BKN050
     FM012300 23011KT P6SM BKN050
     FM020100 23006KT P6SM BKN050
     FM020600 VRB04KT P6SM SCT050 BKN250
     FM021600 11005KT P6SM SCT050 BKN250=



000
FTUS41 KOKX 011727
TAFJFK
TAF
KJFK 011727Z 0118/0224 22013G20KT P6SM FEW030 BKN050
     FM012000 20016G24KT P6SM BKN050
     FM020000 24011KT P6SM BKN050
     FM020500 VRB04KT P6SM SCT050 BKN250
     FM021200 36005KT P6SM SCT050 BKN250
     FM021700 18009KT P6SM SCT050 BKN250=



000
FTUS41 KOKX 011727
TAFSWF
TAF
KSWF 011727Z 0118/0224 26013G20KT P6SM FEW020 BKN035
     FM012300 27009KT P6SM BKN040
     FM020100 28005KT P6SM BKN050
     FM020500 VRB03KT P6SM SCT050 BKN250
     FM021600 28006KT P6SM SCT050 BKN250
      AMD NOT SKED=



000
FTUS41 KOKX 011727
TAFTEB
TAF
KTEB 011727Z 0118/0218 25012KT P6SM FEW030 BKN050
     FM012000 25013G21KT P6SM BKN050
     FM012300 25011KT P6SM BKN050
     FM020100 27006KT P6SM BKN050
     FM020500 VRB04KT P6SM SCT050 BKN250
     FM021200 35005KT P6SM SCT050 BKN250=



000
FTUS41 KOKX 011727
TAFLGA
TAF
KLGA 011727Z 0118/0218 23013G20KT P6SM FEW030 BKN050
     FM012000 23016G24KT P6SM BKN050
     FM020000 25010KT P6SM BKN050
     FM020500 VRB04KT P6SM SCT050 BKN250
     FM021200 04005KT P6SM SCT050 BKN250=



000
FTUS41 KOKX 011727
TAFEWR
TAF
KEWR 011727Z 0118/0224 25013G20KT P6SM FEW030 BKN050
     FM012000 25016G24KT P6SM BKN050
     FM020000 27010KT P6SM BKN050
     FM020500 VRB04KT P6SM SCT050 BKN250
     FM021200 36005KT P6SM SCT050 BKN250
     FM021800 15007KT P6SM SCT050 BKN250=



000
FTUS41 KOKX 011727
TAFGON
TAF
KGON 011727Z 0118/0218 22013KT P6SM FEW020 BKN050
     FM012300 23009KT P6SM BKN050
     FM020100 27005KT P6SM BKN050
     FM020600 VRB04KT P6SM SCT050 BKN250
     FM021500 18005KT P6SM SCT050 BKN250=



000
FTUS41 KOKX 011727
TAFBDR
TAF
KBDR 011727Z 0118/0218 22013KT P6SM BKN050
     FM012300 23009KT P6SM BKN050
     FM020100 26005KT P6SM BKN050
     FM020600 VRB04KT P6SM SCT050 BKN250
     FM021500 18005KT P6SM SCT050 BKN250=



000
FTUS41 KOKX 011727
TAFBDR
TAF
KBDR 011727Z 0118/0218 22013KT P6SM BKN050
     FM012300 23009KT P6SM BKN050
     FM020100 26005KT P6SM BKN050
     FM020600 VRB04KT P6SM SCT050 BKN250
     FM021500 18005KT P6SM SCT050 BKN250=



000
FTUS41 KOKX 011727
TAFISP
TAF
KISP 011727Z 0118/0218 22013G20KT P6SM FEW025 BKN050
     FM012300 23011KT P6SM BKN050
     FM020100 23006KT P6SM BKN050
     FM020600 VRB04KT P6SM SCT050 BKN250
     FM021600 11005KT P6SM SCT050 BKN250=



000
FTUS41 KOKX 011727
TAFTEB
TAF
KTEB 011727Z 0118/0218 25012KT P6SM FEW030 BKN050
     FM012000 25013G21KT P6SM BKN050
     FM012300 25011KT P6SM BKN050
     FM020100 27006KT P6SM BKN050
     FM020500 VRB04KT P6SM SCT050 BKN250
     FM021200 35005KT P6SM SCT050 BKN250=



000
FTUS41 KOKX 011727
TAFLGA
TAF
KLGA 011727Z 0118/0218 23013G20KT P6SM FEW030 BKN050
     FM012000 23016G24KT P6SM BKN050
     FM020000 25010KT P6SM BKN050
     FM020500 VRB04KT P6SM SCT050 BKN250
     FM021200 04005KT P6SM SCT050 BKN250=



000
FTUS41 KOKX 011727
TAFGON
TAF
KGON 011727Z 0118/0218 22013KT P6SM FEW020 BKN050
     FM012300 23009KT P6SM BKN050
     FM020100 27005KT P6SM BKN050
     FM020600 VRB04KT P6SM SCT050 BKN250
     FM021500 18005KT P6SM SCT050 BKN250=



000
FTUS41 KOKX 011727
TAFEWR
TAF
KEWR 011727Z 0118/0224 25013G20KT P6SM FEW030 BKN050
     FM012000 25016G24KT P6SM BKN050
     FM020000 27010KT P6SM BKN050
     FM020500 VRB04KT P6SM SCT050 BKN250
     FM021200 36005KT P6SM SCT050 BKN250
     FM021800 15007KT P6SM SCT050 BKN250=



000
FTUS41 KOKX 011727
TAFSWF
TAF
KSWF 011727Z 0118/0224 26013G20KT P6SM FEW020 BKN035
     FM012300 27009KT P6SM BKN040
     FM020100 28005KT P6SM BKN050
     FM020500 VRB03KT P6SM SCT050 BKN250
     FM021600 28006KT P6SM SCT050 BKN250
      AMD NOT SKED=



000
FTUS41 KOKX 011727
TAFJFK
TAF
KJFK 011727Z 0118/0224 22013G20KT P6SM FEW030 BKN050
     FM012000 20016G24KT P6SM BKN050
     FM020000 24011KT P6SM BKN050
     FM020500 VRB04KT P6SM SCT050 BKN250
     FM021200 36005KT P6SM SCT050 BKN250
     FM021700 18009KT P6SM SCT050 BKN250=



000
FTUS41 KOKX 011507 AAC
TAFJFK
TAF AMD
KJFK 011507Z 0115/0218 22013G20KT P6SM FEW025 SCT050
     FM012000 20016G24KT P6SM BKN050
     FM020100 22011KT P6SM BKN050
     FM020700 32007KT P6SM SCT050 BKN250
     FM021700 18009KT P6SM SCT050 BKN250=



000
FTUS41 KOKX 011435 AAB
TAFJFK
TAF AMD
KJFK 011435Z 0115/0218 20011KT P6SM FEW020 BKN050
      TEMPO 0115/0116 BKN020
     FM011600 20013G21KT P6SM BKN050
     FM012000 20016G24KT P6SM BKN050
     FM020100 22011KT P6SM BKN050
     FM020700 32007KT P6SM SCT050 BKN250
     FM021700 18009KT P6SM SCT050 BKN250=



000
FTUS41 KOKX 011435 AAB
TAFEWR
TAF AMD
KEWR 011435Z 0115/0218 24011G18KT P6SM SCT020 BKN050
      TEMPO 0115/0116 BKN020
     FM011600 24013G20KT P6SM BKN050
     FM012000 25016G24KT P6SM BKN050
     FM020100 27011KT P6SM BKN050
     FM020600 32006KT P6SM SCT050 BKN250=



000
FTUS41 KOKX 011435 AAB
TAFGON
TAF AMD
KGON 011435Z 0115/0212 17008KT 5SM BR SCT020 BKN050
      TEMPO 0115/0116 BKN020
     FM011600 22009KT P6SM FEW025 BKN040
     FM011900 26011G19KT P6SM BKN050
     FM020100 27006KT P6SM BKN050
     FM020900 32006KT P6SM SCT050 BKN250=



000
FTUS41 KOKX 011435 AAA
TAFSWF
TAF AMD
KSWF 011435Z 0115/0218 24010KT P6SM SCT020 BKN040
      TEMPO 0115/0118 BKN020
     FM011800 26013G20KT P6SM BKN050
     FM020100 28005KT P6SM SCT050 BKN250
      AMD NOT SKED=



000
FTUS41 KOKX 011435 AAC
TAFLGA
TAF AMD
KLGA 011435Z 0115/0212 21011KT P6SM FEW020 BKN050
      TEMPO 0115/0116 BKN020
     FM011600 22012G20KT P6SM BKN050
     FM012000 23016G24KT P6SM BKN050
     FM020100 25011KT P6SM BKN050
     FM020700 32006KT P6SM SCT050 BKN250=



000
FTUS41 KOKX 011435 AAA
TAFBDR
TAF AMD
KBDR 011435Z 0115/0212 19007KT P6SM FEW020 BKN050
      TEMPO 0115/0116 BKN020
     FM011600 19010KT P6SM BKN050
     FM011900 22013G19KT P6SM BKN050
     FM020100 26005KT P6SM BKN050
     FM020800 32005KT P6SM SCT050 BKN250=



000
FTUS41 KOKX 011435 AAB
TAFTEB
TAF AMD
KTEB 011435Z 0115/0212 23010KT P6SM SCT020 BKN050
      TEMPO 0115/0116 BKN020
     FM011700 24012G19KT P6SM BKN050
     FM012000 24014G23KT P6SM BKN050
     FM020100 27006KT P6SM BKN050
     FM020600 32005KT P6SM SCT050 BKN250=



000
FTUS41 KOKX 011435 AAB
TAFISP
TAF AMD
KISP 011435Z 0115/0212 22011KT P6SM SCT020 BKN050
      TEMPO 0115/0116 BKN020
     FM011700 22011G19KT P6SM BKN050
     FM020100 23007KT P6SM BKN050
     FM020800 32005KT P6SM SCT050 BKN250=



000
FTUS41 KOKX 011326 AAA
TAFGON
TAF AMD
KGON 011326Z 0113/0212 17008KT 5SM BR SCT010 BKN050
      TEMPO 0113/0115 BKN010
     FM011600 23009KT P6SM BKN040
     FM011900 26011G19KT P6SM BKN050
     FM020100 27006KT P6SM BKN050
     FM020900 32006KT P6SM SCT050 BKN250=



000
FTUS41 KOKX 011324 AAA
TAFISP
TAF AMD
KISP 011324Z 0113/0212 21010KT P6SM SCT010 BKN050
      TEMPO 0113/0115 BKN010
     FM011500 20011KT P6SM BKN050
     FM011900 22011G19KT P6SM BKN050
     FM020100 23007KT P6SM BKN050
     FM020800 32005KT P6SM SCT050 BKN250=



000
FTUS41 KOKX 011308 AAA
TAFJFK
TAF AMD
KJFK 011308Z 0113/0218 21010KT P6SM SCT015 BKN050
      TEMPO 0113/0115 BKN015
     FM011500 20010KT P6SM BKN050
     FM011800 20015G23KT P6SM BKN050
     FM020100 22011KT P6SM BKN050
     FM020700 32007KT P6SM SCT050 BKN250
     FM021700 18009KT P6SM SCT050 BKN250=



000
FTUS41 KOKX 011308 AAA
TAFTEB
TAF AMD
KTEB 011308Z 0113/0212 22007KT P6SM SCT015 BKN050
      TEMPO 0113/0115 BKN015
     FM011500 24010KT P6SM BKN050
     FM011800 24012G19KT P6SM BKN050
     FM020100 27006KT P6SM BKN050
     FM020600 32005KT P6SM SCT050 BKN250=



000
FTUS41 KOKX 011308 AAB
TAFLGA
TAF AMD
KLGA 011308Z 0113/0212 22010KT P6SM SCT020 BKN050
      TEMPO 0113/0115 BKN020
     FM011500 21010KT P6SM BKN050
     FM011800 22012G22KT P6SM BKN050
     FM020100 25011KT P6SM BKN050
     FM020700 32006KT P6SM SCT050 BKN250=



000
FTUS41 KOKX 011308 AAA
TAFEWR
TAF AMD
KEWR 011308Z 0113/0218 23008KT P6SM SCT015 BKN050
      TEMPO 0113/0115 BKN015
     FM011500 24010G18KT P6SM BKN050
     FM011800 24015G22KT P6SM BKN050
     FM020100 27011KT P6SM BKN050
     FM020600 32006KT P6SM SCT050 BKN250=



000
FTUS41 KOKX 011308 AAA
TAFEWR
TAF AMD
KEWR 011308Z 0113/0218 23008KT P6SM SCT015 BKN050
      TEMPO 0113/0115 BKN015
     FM011500 24010G18KT P6SM BKN050
     FM011800 24015G22KT P6SM BKN050
     FM020100 27011KT P6SM BKN050
     FM020600 32006KT P6SM SCT050 BKN250=



000
FTUS41 KOKX 011308 AAB
TAFLGA
TAF AMD
KLGA 011308Z 0113/0212 22010KT P6SM SCT020 BKN050
      TEMPO 0113/0115 BKN020
     FM011500 21010KT P6SM BKN050
     FM011800 22012G22KT P6SM BKN050
     FM020100 25011KT P6SM BKN050
     FM020700 32006KT P6SM SCT050 BKN250=



000
FTUS41 KOKX 011308 AAA
TAFJFK
TAF AMD
KJFK 011308Z 0113/0218 21010KT P6SM SCT015 BKN050
      TEMPO 0113/0115 BKN015
     FM011500 20010KT P6SM BKN050
     FM011800 20015G23KT P6SM BKN050
     FM020100 22011KT P6SM BKN050
     FM020700 32007KT P6SM SCT050 BKN250
     FM021700 18009KT P6SM SCT050 BKN250=



000
FTUS41 KOKX 011308 AAA
TAFTEB
TAF AMD
KTEB 011308Z 0113/0212 22007KT P6SM SCT015 BKN050
      TEMPO 0113/0115 BKN015
     FM011500 24010KT P6SM BKN050
     FM011800 24012G19KT P6SM BKN050
     FM020100 27006KT P6SM BKN050
     FM020600 32005KT P6SM SCT050 BKN250=



000
FTUS41 KOKX 011148 AAA
TAFLGA
TAF AMD
KLGA 011148Z 0112/0212 VRB06KT P6SM VCSH SCT050 BKN100
     FM011300 21008KT P6SM -SHRA VCTS BKN050CB
     FM011500 21010KT P6SM BKN050
     FM011800 22012G22KT P6SM BKN050
     FM020100 25011KT P6SM BKN050
     FM020700 32006KT P6SM SCT050 BKN250=



000
FTUS41 KOKX 011134
TAFJFK
TAF
KJFK 011134Z 0112/0218 VRB06KT P6SM VCSH SCT050 BKN100
     FM011300 20009KT P6SM -SHRA VCTS BKN050CB
     FM011500 20010KT P6SM BKN050
     FM011800 20015G23KT P6SM BKN050
     FM020100 22011KT P6SM BKN050
     FM020700 32007KT P6SM SCT050 BKN250
     FM021700 18009KT P6SM SCT050 BKN250=



000
FTUS41 KOKX 011134
TAFEWR
TAF
KEWR 011134Z 0112/0218 VRB06KT P6SM VCSH SCT050 BKN100
     FM011300 22006KT P6SM -SHRA VCTS BKN050CB
     FM011500 24010G18KT P6SM BKN050
     FM011800 24015G22KT P6SM BKN050
     FM020100 27011KT P6SM BKN050
     FM020600 32006KT P6SM SCT050 BKN250=



000
FTUS41 KOKX 011134
TAFTEB
TAF
KTEB 011134Z 0112/0212 VRB05KT P6SM VCSH SCT050 BKN100
     FM011300 22005KT P6SM -SHRA VCTS BKN050CB
     FM011500 24008KT P6SM BKN050
     FM011800 24012G19KT P6SM BKN050
     FM020100 27006KT P6SM BKN050
     FM020600 32005KT P6SM SCT050 BKN250=



000
FTUS41 KOKX 011134
TAFBDR
TAF
KBDR 011134Z 0112/0212 VRB05KT 6SM BR VCSH SCT020 BKN100
     FM011300 19007KT P6SM -SHRA VCTS BKN050CB
     FM011600 19009KT P6SM BKN050
     FM011900 22013G19KT P6SM BKN050
     FM020100 26005KT P6SM BKN050
     FM020800 32005KT P6SM SCT050 BKN250=



000
FTUS41 KOKX 011134
TAFGON
TAF
KGON 011134Z 0112/0212 15012KT 3SM SHRA BR VCTS SCT020CB BKN100
     FM011300 18008KT 6SM -SHRA BR VCTS BKN035CB
     FM011600 23009KT P6SM BKN040
     FM011900 26011G19KT P6SM BKN050
     FM020100 27006KT P6SM BKN050
     FM020900 32006KT P6SM SCT050 BKN250=



000
FTUS41 KOKX 011134
TAFSWF
TAF
KSWF 011134Z 0112/0218 VRB06KT 6SM -SHRA VCTS SCT030CB BKN100
     FM011500 24010KT P6SM SCT025 BKN040
     FM011800 26013G20KT P6SM BKN050
     FM020100 28005KT P6SM SCT050 BKN250
      AMD NOT SKED=



000
FTUS41 KOKX 011134
TAFLGA
TAF
KLGA 011134Z 0112/0212 VRB06KT P6SM VCSH SCT050 BKN100
     FM011300 19008KT P6SM -SHRA VCTS BKN050CB
     FM011500 21010KT P6SM BKN050
     FM011800 22012G22KT P6SM BKN050
     FM020100 25011KT P6SM BKN050
     FM020700 32006KT P6SM SCT050 BKN250=



000
FTUS41 KOKX 011134
TAFISP
TAF
KISP 011134Z 0112/0212 16009KT P6SM VCSH SCT050 BKN100
     FM011300 18007KT P6SM -SHRA VCTS BKN050CB
     FM011500 20011KT P6SM BKN050
     FM011900 22011G19KT P6SM BKN050
     FM020100 23007KT P6SM BKN050
     FM020800 32005KT P6SM SCT050 BKN250=



000
FTUS41 KOKX 011134
TAFSWF
TAF
KSWF 011134Z 0112/0218 VRB06KT 6SM -SHRA VCTS SCT030CB BKN100
     FM011500 24010KT P6SM SCT025 BKN040
     FM011800 26013G20KT P6SM BKN050
     FM020100 28005KT P6SM SCT050 BKN250
      AMD NOT SKED=



000
FTUS41 KOKX 011134
TAFJFK
TAF
KJFK 011134Z 0112/0218 VRB06KT P6SM VCSH SCT050 BKN100
     FM011300 20009KT P6SM -SHRA VCTS BKN050CB
     FM011500 20010KT P6SM BKN050
     FM011800 20015G23KT P6SM BKN050
     FM020100 22011KT P6SM BKN050
     FM020700 32007KT P6SM SCT050 BKN250
     FM021700 18009KT P6SM SCT050 BKN250=



000
FTUS41 KOKX 011134
TAFISP
TAF
KISP 011134Z 0112/0212 16009KT P6SM VCSH SCT050 BKN100
     FM011300 18007KT P6SM -SHRA VCTS BKN050CB
     FM011500 20011KT P6SM BKN050
     FM011900 22011G19KT P6SM BKN050
     FM020100 23007KT P6SM BKN050
     FM020800 32005KT P6SM SCT050 BKN250=



000
FTUS41 KOKX 011134
TAFGON
TAF
KGON 011134Z 0112/0212 15012KT 3SM SHRA BR VCTS SCT020CB BKN100
     FM011300 18008KT 6SM -SHRA BR VCTS BKN035CB
     FM011600 23009KT P6SM BKN040
     FM011900 26011G19KT P6SM BKN050
     FM020100 27006KT P6SM BKN050
     FM020900 32006KT P6SM SCT050 BKN250=



000
FTUS41 KOKX 011134
TAFTEB
TAF
KTEB 011134Z 0112/0212 VRB05KT P6SM VCSH SCT050 BKN100
     FM011300 22005KT P6SM -SHRA VCTS BKN050CB
     FM011500 24008KT P6SM BKN050
     FM011800 24012G19KT P6SM BKN050
     FM020100 27006KT P6SM BKN050
     FM020600 32005KT P6SM SCT050 BKN250=



000
FTUS41 KOKX 011134
TAFEWR
TAF
KEWR 011134Z 0112/0218 VRB06KT P6SM VCSH SCT050 BKN100
     FM011300 22006KT P6SM -SHRA VCTS BKN050CB
     FM011500 24010G18KT P6SM BKN050
     FM011800 24015G22KT P6SM BKN050
     FM020100 27011KT P6SM BKN050
     FM020600 32006KT P6SM SCT050 BKN250=



000
FTUS41 KOKX 011134
TAFBDR
TAF
KBDR 011134Z 0112/0212 VRB05KT 6SM BR VCSH SCT020 BKN100
     FM011300 19007KT P6SM -SHRA VCTS BKN050CB
     FM011600 19009KT P6SM BKN050
     FM011900 22013G19KT P6SM BKN050
     FM020100 26005KT P6SM BKN050
     FM020800 32005KT P6SM SCT050 BKN250=



000
FTUS41 KOKX 011134
TAFLGA
TAF
KLGA 011134Z 0112/0212 VRB06KT P6SM VCSH SCT050 BKN100
     FM011300 19008KT P6SM -SHRA VCTS BKN050CB
     FM011500 21010KT P6SM BKN050
     FM011800 22012G22KT P6SM BKN050
     FM020100 25011KT P6SM BKN050
     FM020700 32006KT P6SM SCT050 BKN250=



000
FTUS41 KOKX 011023 AAC
TAFGON
TAF AMD
KGON 011023Z 0110/0206 15020KT 6SM BR VCSH SCT006 BKN015
      TEMPO 0110/0112 VRB30G45KT 1SM +TSRA SCT005 BKN015CB
     FM011300 15007KT 6SM -SHRA BR VCTS BKN012CB
     FM011600 23009KT P6SM SCT025 BKN040
     FM011900 26011G19KT P6SM BKN050=



000
FTUS41 KOKX 011020 AAB
TAFTEB
TAF AMD
KTEB 011020Z 0110/0206 VRB05KT P6SM VCSH SCT040 BKN100
     FM011200 22005KT 6SM -SHRA BR VCTS BKN012CB
     FM011500 24008KT P6SM SCT025 BKN040
     FM011800 24012G19KT P6SM BKN050
     FM020100 27006KT P6SM BKN050=



000
FTUS41 KOKX 011020 AAB
TAFTEB
TAF AMD
KTEB 011020Z 0110/0206 VRB05KT P6SM VCSH SCT040 BKN100
     FM011200 22005KT 6SM -SHRA BR VCTS BKN012CB
     FM011500 24008KT P6SM SCT025 BKN040
     FM011800 24012G19KT P6SM BKN050
     FM020100 27006KT P6SM BKN050=



000
FTUS41 KOKX 011019 AAB
TAFEWR
TAF AMD
KEWR 011019Z 0110/0212 20006KT P6SM VCSH SCT025 BKN100
     FM011200 22006KT 6SM -SHRA BR VCTS BKN012CB
     FM011500 24010G18KT P6SM SCT025 BKN040
     FM011800 24015G22KT P6SM BKN050
     FM020100 27011KT P6SM BKN050
     FM020600 32006KT P6SM SCT050 BKN250=



000
FTUS41 KOKX 011019 AAB
TAFEWR
TAF AMD
KEWR 011019Z 0110/0212 20006KT P6SM VCSH SCT025 BKN100
     FM011200 22006KT 6SM -SHRA BR VCTS BKN012CB
     FM011500 24010G18KT P6SM SCT025 BKN040
     FM011800 24015G22KT P6SM BKN050
     FM020100 27011KT P6SM BKN050
     FM020600 32006KT P6SM SCT050 BKN250=



000
FTUS41 KOKX 011018 AAC
TAFJFK
TAF AMD
KJFK 011018Z 0110/0212 VRB06KT P6SM VCSH SCT025 BKN100
     FM011200 20009KT 6SM -SHRA BR VCTS SCT007 BKN012CB
     FM011500 20010KT P6SM SCT025 BKN040
     FM011800 20015G23KT P6SM BKN050
     FM020100 22011KT P6SM BKN050
     FM020700 32007KT P6SM SCT050 BKN250=



000
FTUS41 KOKX 011018 AAC
TAFJFK
TAF AMD
KJFK 011018Z 0110/0212 VRB06KT P6SM VCSH SCT025 BKN100
     FM011200 20009KT 6SM -SHRA BR VCTS SCT007 BKN012CB
     FM011500 20010KT P6SM SCT025 BKN040
     FM011800 20015G23KT P6SM BKN050
     FM020100 22011KT P6SM BKN050
     FM020700 32007KT P6SM SCT050 BKN250=



000
FTUS41 KOKX 011018 AAC
TAFLGA
TAF AMD
KLGA 011018Z 0110/0206 VRB06KT P6SM VCSH SCT025 BKN100
     FM011200 19008KT 6SM -SHRA BR VCTS SCT007 BKN012CB
     FM011500 21010KT P6SM SCT025 BKN040
     FM011800 22012G22KT P6SM BKN050
     FM020100 25011KT P6SM BKN050=



000
FTUS41 KOKX 011018 AAC
TAFLGA
TAF AMD
KLGA 011018Z 0110/0206 VRB06KT P6SM VCSH SCT025 BKN100
     FM011200 19008KT 6SM -SHRA BR VCTS SCT007 BKN012CB
     FM011500 21010KT P6SM SCT025 BKN040
     FM011800 22012G22KT P6SM BKN050
     FM020100 25011KT P6SM BKN050=



000
FTUS41 KOKX 010844 CCA
TAFLGA
TAF COR
KLGA 010844Z 0109/0206 19010KT 6SM BR BKN007
      TEMPO 0108/0112 VRB15G35KT 4SM TSRA SCT007 BKN015CB
     FM011200 19008KT 6SM -SHRA BR VCTS SCT007 BKN012CB
     FM011500 21010KT P6SM SCT025 BKN040
     FM011800 22012G22KT P6SM BKN050
     FM020100 25011KT P6SM BKN050=



000
FTUS41 KOKX 010843 CCA
TAFJFK
TAF COR
KJFK 010843Z 0109/0212 18010KT 6SM BR VCSH BKN007
      TEMPO 0108/0112 VRB15G35KT 4SM TSRA SCT007 BKN015CB
     FM011200 20009KT 6SM -SHRA BR VCTS SCT007 BKN012CB
     FM011500 20010KT P6SM SCT025 BKN040
     FM011800 20015G23KT P6SM BKN050
     FM020100 22011KT P6SM BKN050
     FM020700 32007KT P6SM SCT050 BKN250=



000
FTUS41 KOKX 010843 CCA
TAFJFK
TAF COR
KJFK 010843Z 0109/0212 18010KT 6SM BR VCSH BKN007
      TEMPO 0108/0112 VRB15G35KT 4SM TSRA SCT007 BKN015CB
     FM011200 20009KT 6SM -SHRA BR VCTS SCT007 BKN012CB
     FM011500 20010KT P6SM SCT025 BKN040
     FM011800 20015G23KT P6SM BKN050
     FM020100 22011KT P6SM BKN050
     FM020700 32007KT P6SM SCT050 BKN250=



000
FTUS41 KOKX 010840 AAA
TAFBDR
TAF AMD
KBDR 010840Z 0109/0206 11005KT 6SM BR VCSH SCT006 BKN015
      TEMPO 0108/0112 4SM TSRA BKN015CB
     FM011200 15007KT 6SM -SHRA BR VCTS BKN012CB
     FM011600 19009KT P6SM SCT025 BKN040
     FM011900 22013G19KT P6SM BKN050
     FM020100 26005KT P6SM BKN050=



000
FTUS41 KOKX 010840 AAA
TAFISP
TAF AMD
KISP 010840Z 0109/0206 16009KT 6SM BR VCSH SCT006 BKN015
      TEMPO 0108/0112 4SM TSRA BKN015CB
     FM011200 18007KT 6SM -SHRA BR VCTS BKN012CB
     FM011500 20011KT P6SM SCT025 BKN040
     FM011900 22011G19KT P6SM BKN050
     FM020100 23007KT P6SM BKN050=



000
FTUS41 KOKX 010840 AAB
TAFJFK
TAF AMD
KJFK 010840Z 0109/0212 18010KT 6SM BR VCSH BKN007
      TEMPO 0108/0112 4SM TSRA SCT007 BKN015CB
     FM011200 20009KT 6SM -SHRA BR VCTS SCT007 BKN012CB
     FM011500 20010KT P6SM SCT025 BKN040
     FM011800 20015G23KT P6SM BKN050
     FM020100 22011KT P6SM BKN050
     FM020700 32007KT P6SM SCT050 BKN250=



000
FTUS41 KOKX 010840 AAA
TAFTEB
TAF AMD
KTEB 010840Z 0109/0206 VRB05KT 6SM BR VCSH SCT006 BKN015
      TEMPO 0108/0112 VRB15G35KT 1/2SM TSRA BKN015CB
     FM011200 22005KT 6SM -SHRA BR VCTS BKN012CB
     FM011500 24008KT P6SM SCT025 BKN040
     FM011800 24012G19KT P6SM BKN050
     FM020100 27006KT P6SM BKN050=



000
FTUS41 KOKX 010840 AAB
TAFLGA
TAF AMD
KLGA 010840Z 0109/0206 19010KT 6SM BR BKN007
      TEMPO 0108/0112 4SM TSRA SCT007 BKN015CB
     FM011200 19008KT 6SM -SHRA BR VCTS SCT007 BKN012CB
     FM011500 21010KT P6SM SCT025 BKN040
     FM011800 22012G22KT P6SM BKN050
     FM020100 25011KT P6SM BKN050=



000
FTUS41 KOKX 010840 AAA
TAFSWF
TAF AMD
KSWF 010840Z 0109/0212 VRB04KT 6SM -SHRA BR VCTS SCT006 BKN015CB
      TEMPO 0107/0111 3SM TSRA
     FM011100 VRB06KT 6SM -TSRA BR BKN012CB
     FM011400 24010KT P6SM SCT025 BKN040
     FM011800 26013G20KT P6SM BKN050
     FM020100 28005KT P6SM SCT050 BKN250
      AMD NOT SKED=



000
FTUS41 KOKX 010840 AAA
TAFEWR
TAF AMD
KEWR 010840Z 0109/0212 17007KT 6SM BR VCSH SCT006 BKN015
      TEMPO 0108/0112 4SM TSRA BKN015CB
     FM011200 22006KT 6SM -SHRA BR VCTS BKN012CB
     FM011500 24010G18KT P6SM SCT025 BKN040
     FM011800 24015G22KT P6SM BKN050
     FM020100 27011KT P6SM BKN050
     FM020600 32006KT P6SM SCT050 BKN250=



000
FTUS41 KOKX 010840 AAA
TAFBDR
TAF AMD
KBDR 010840Z 0109/0206 11005KT 6SM BR VCSH SCT006 BKN015
      TEMPO 0108/0112 4SM TSRA BKN015CB
     FM011200 15007KT 6SM -SHRA BR VCTS BKN012CB
     FM011600 19009KT P6SM SCT025 BKN040
     FM011900 22013G19KT P6SM BKN050
     FM020100 26005KT P6SM BKN050=



000
FTUS41 KOKX 010840 AAA
TAFTEB
TAF AMD
KTEB 010840Z 0109/0206 VRB05KT 6SM BR VCSH SCT006 BKN015
      TEMPO 0108/0112 VRB15G35KT 1/2SM TSRA BKN015CB
     FM011200 22005KT 6SM -SHRA BR VCTS BKN012CB
     FM011500 24008KT P6SM SCT025 BKN040
     FM011800 24012G19KT P6SM BKN050
     FM020100 27006KT P6SM BKN050=



000
FTUS41 KOKX 010840 AAA
TAFISP
TAF AMD
KISP 010840Z 0109/0206 16009KT 6SM BR VCSH SCT006 BKN015
      TEMPO 0108/0112 4SM TSRA BKN015CB
     FM011200 18007KT 6SM -SHRA BR VCTS BKN012CB
     FM011500 20011KT P6SM SCT025 BKN040
     FM011900 22011G19KT P6SM BKN050
     FM020100 23007KT P6SM BKN050=



000
FTUS41 KOKX 010840 AAB
TAFGON
TAF AMD
KGON 010840Z 0109/0206 12007KT P6SM FEW015 BKN050
     FM010800 VRB04KT 6SM BR VCSH SCT006 BKN015 BKN040
      TEMPO 0109/0113 3SM TSRA BKN015CB
     FM011300 15007KT 6SM -SHRA BR VCTS BKN012CB
     FM011600 23009KT P6SM SCT025 BKN040
     FM011900 26011G19KT P6SM BKN050=



000
FTUS41 KOKX 010840 AAB
TAFJFK
TAF AMD
KJFK 010840Z 0109/0212 18010KT 6SM BR VCSH BKN007
      TEMPO 0108/0112 4SM TSRA SCT007 BKN015CB
     FM011200 20009KT 6SM -SHRA BR VCTS SCT007 BKN012CB
     FM011500 20010KT P6SM SCT025 BKN040
     FM011800 20015G23KT P6SM BKN050
     FM020100 22011KT P6SM BKN050
     FM020700 32007KT P6SM SCT050 BKN250=



000
FTUS41 KOKX 010840 AAA
TAFSWF
TAF AMD
KSWF 010840Z 0109/0212 VRB04KT 6SM -SHRA BR VCTS SCT006 BKN015CB
      TEMPO 0107/0111 3SM TSRA
     FM011100 VRB06KT 6SM -TSRA BR BKN012CB
     FM011400 24010KT P6SM SCT025 BKN040
     FM011800 26013G20KT P6SM BKN050
     FM020100 28005KT P6SM SCT050 BKN250
      AMD NOT SKED=



000
FTUS41 KOKX 010840 AAB
TAFLGA
TAF AMD
KLGA 010840Z 0109/0206 19010KT 6SM BR BKN007
      TEMPO 0108/0112 4SM TSRA SCT007 BKN015CB
     FM011200 19008KT 6SM -SHRA BR VCTS SCT007 BKN012CB
     FM011500 21010KT P6SM SCT025 BKN040
     FM011800 22012G22KT P6SM BKN050
     FM020100 25011KT P6SM BKN050=



000
FTUS41 KOKX 010735 AAA
TAFLGA
TAF AMD
KLGA 010735Z 0108/0206 19010KT 6SM BR BKN007
      TEMPO 0108/0112 4SM TSRA SCT007 BKN015CB
     FM011200 19008KT 6SM -SHRA BR VCTS SCT007 BKN012CB
     FM011500 21010KT P6SM SCT025 BKN040
     FM011800 22012G22KT P6SM BKN050
     FM020100 25011KT P6SM BKN050=



000
FTUS41 KOKX 010735 AAA
TAFLGA
TAF AMD
KLGA 010735Z 0108/0206 19010KT 6SM BR BKN007
      TEMPO 0108/0112 4SM TSRA SCT007 BKN015CB
     FM011200 19008KT 6SM -SHRA BR VCTS SCT007 BKN012CB
     FM011500 21010KT P6SM SCT025 BKN040
     FM011800 22012G22KT P6SM BKN050
     FM020100 25011KT P6SM BKN050=



000
FTUS41 KOKX 010734 AAA
TAFJFK
TAF AMD
KJFK 010734Z 0108/0212 18010KT 6SM BR VCSH BKN007
      TEMPO 0108/0112 4SM TSRA SCT007 BKN015CB
     FM011200 20009KT 6SM -SHRA BR VCTS SCT007 BKN012CB
     FM011500 20010KT P6SM SCT025 BKN040
     FM011800 20015G23KT P6SM BKN050
     FM020100 22011KT P6SM BKN050
     FM020700 32007KT P6SM SCT050 BKN250=



000
FTUS41 KOKX 010734 AAA
TAFJFK
TAF AMD
KJFK 010734Z 0108/0212 18010KT 6SM BR VCSH BKN007
      TEMPO 0108/0112 4SM TSRA SCT007 BKN015CB
     FM011200 20009KT 6SM -SHRA BR VCTS SCT007 BKN012CB
     FM011500 20010KT P6SM SCT025 BKN040
     FM011800 20015G23KT P6SM BKN050
     FM020100 22011KT P6SM BKN050
     FM020700 32007KT P6SM SCT050 BKN250=



    US Dept of Commerce
    National Oceanic and Atmospheric Administration
    National Weather Service
    1325 East West Highway
    Silver Spring, MD 20910
    Page Author: NWS Internet Services Team
Disclaimer
Information Quality
Credits
Glossary
Privacy Policy
Freedom of Information Act (FOIA)
About Us
Career Opportunities